Flight Track Log - Related Links

Times and Time Zones

All times are in EDT time to prevent confusion due to time zone crossing. See the DAL268 flight status page for this flight to view local times or setup timezone preferences in your user account.

Time Position Orientation Groundspeed Altitude Reporting Facility
EDT Latitude Longitude Course Direction KTS MPH feet Rate Location/Type
Thu 09:19:45 PM 40.6290 -73.7820 180° South  Level FlightAware ADS-B
Thu 09:28:00 PM 40.5039 -73.3912 123° Southeast  Level FlightAware Approximate
Thu 09:29:00 PM 40.4580 -73.2230 105° East  Level FlightAware Approximate
Thu 09:30:00 PM 40.3978 -73.0601 114° Southeast  Level FlightAware Approximate
Thu 09:33:00 PM 40.8009 -73.4591 123° Southeast  Level Estimated
Thu 09:35:48 PM 40.6310 -73.7790 31° Northeast 115 132  Level FlightAware ADS-B
Thu 09:36:12 PM 40.6450 -73.7680 31° Northeast 161 185 200 1,116 Climbing FlightAware ADS-B
Thu 09:36:31 PM 40.6560 -73.7570 37° Northeast 157 181 800 1,778 Climbing FlightAware ADS-B
Thu 09:36:39 PM 40.6590 -73.7500 61° Northeast 163 188 1,000 1,667 Climbing FlightAware ADS-B
Thu 09:36:49 PM 40.6606 -73.7399 78° East 171 197 1,300 1,368 Climbing FlightAware ADS-B
Thu 09:37:36 PM 40.6610 -73.6840 89° East 214 246 2,300 1,183 Climbing FlightAware ADS-B
Thu 09:38:00 PM 40.6590 -73.6520 95° East 236 272 2,700 1,200 Climbing FlightAware ADS-B
Thu 09:38:16 PM 40.6510 -73.6290 115° Southeast 254 292 3,100 1,946 Climbing FlightAware ADS-B
Thu 09:38:37 PM 40.6390 -73.5980 117° Southeast 262 302 3,900 2,286 Climbing FlightAware ADS-B
Thu 09:38:58 PM 40.6280 -73.5700 117° Southeast 269 310 4,700 2,462 Climbing FlightAware ADS-B
Thu 09:39:16 PM 40.6170 -73.5430 118° Southeast 274 315 5,500 2,455 Climbing FlightAware ADS-B
Thu 09:39:42 PM 40.6020 -73.5050 117° Southeast 283 326 6,500 2,478 Climbing FlightAware ADS-B
Thu 09:40:02 PM 40.5890 -73.4730 118° Southeast 284 327 7,400 2,488 Climbing FlightAware ADS-B
Thu 09:40:23 PM 40.5760 -73.4400 117° Southeast 291 335 8,200 2,211 Climbing FlightAware ADS-B
Thu 09:40:40 PM 40.5650 -73.4130 118° Southeast 297 342 8,800 2,368 Climbing FlightAware ADS-B
Thu 09:41:01 PM 40.5510 -73.3790 118° Southeast 300 345 9,700 2,267 Climbing FlightAware ADS-B
Thu 09:41:25 PM 40.5370 -73.3390 115° Southeast 309 356 10,500 1,371 Climbing FlightAware ADS-B
Thu 09:41:36 PM 40.5360 -73.3190 94° East 322 371 10,500 727 Level FlightAware ADS-B
Thu 09:41:58 PM 40.5430 -73.2730 79° East 350 403 10,900 1,158 Climbing FlightAware ADS-B
Thu 09:42:33 PM 40.5560 -73.1970 77° East 376 433 11,600 1,256 Climbing FlightAware ADS-B
Thu 09:42:41 PM 40.5585 -73.1787 80° East 389 448 11,800 1,077 Climbing FlightAware ADS-B (KSNC)
Thu 09:43:12 PM 40.5705 -73.1048 78° East 413 475 12,300 1,355 Climbing FlightAware ADS-B (KSNC)
Thu 09:43:43 PM 40.5830 -73.0300 78° East 422 486 13,200 1,950 Climbing FlightAware ADS-B
Thu 09:43:52 PM 40.5871 -73.0049 78° East 425 489 13,600 2,000 Climbing FlightAware ADS-B (KSNC)
Thu 09:44:22 PM 40.5996 -72.9254 78° East 436 502 14,500 1,810 Climbing FlightAware ADS-B (KSNC)
Thu 09:44:55 PM 40.6123 -72.8470 78° East 443 510 15,500 1,775 Climbing FlightAware ADS-B (KSNC)
Thu 09:45:33 PM 40.6298 -72.7404 78° East 456 525 16,600 1,676 Climbing FlightAware ADS-B (KSNC)
Thu 09:46:03 PM 40.6430 -72.6580 78° East 462 532 17,400 1,650 Climbing FlightAware ADS-B
Thu 09:46:13 PM 40.6447 -72.6472 78° East 465 535 17,700 1,610 Climbing FlightAware ADS-B (KSNC)
Thu 09:46:44 PM 40.6610 -72.5439 78° East 472 543 18,500 1,645 Climbing FlightAware ADS-B (KSNC)
Thu 09:47:15 PM 40.6750 -72.4560 78° East 477 549 19,400 1,692 Climbing FlightAware ADS-B
Thu 09:47:23 PM 40.6786 -72.4332 78° East 480 552 19,600 1,286 Climbing FlightAware ADS-B (KSNC)
Thu 09:47:57 PM 40.6942 -72.3351 78° East 488 562 20,300 1,347 Climbing FlightAware ADS-B (KSNC)
Thu 09:49:01 PM 40.7240 -72.1460 78° East 501 577 21,800 1,277 Climbing FlightAware ADS-B
Thu 09:49:31 PM 40.7380 -72.0550 78° East 511 588 22,300 1,360 Climbing FlightAware ADS-B
Thu 09:50:16 PM 40.7580 -71.9200 79° East 514 592 23,500 1,425 Climbing FlightAware ADS-B
Thu 09:50:51 PM 40.7740 -71.8150 79° East 519 597 24,200 1,147 Climbing FlightAware ADS-B
Thu 09:51:24 PM 40.7910 -71.7060 78° East 525 604 24,800 943 Climbing FlightAware ADS-B
Thu 09:52:01 PM 40.8090 -71.5880 79° East 535 616 25,300 857 Climbing FlightAware ADS-B
Thu 09:52:34 PM 40.8240 -71.4820 79° East 542 624 25,800 1,083 Climbing FlightAware ADS-B
Thu 09:53:13 PM 40.8430 -71.3550 79° East 544 626 26,600 930 Climbing FlightAware ADS-B
Thu 09:53:45 PM 40.8590 -71.2490 79° East 552 635 26,900 1,043 Climbing FlightAware ADS-B
Thu 09:54:22 PM 40.8770 -71.1270 79° East 551 634 27,800 1,417 Climbing FlightAware ADS-B
Thu 09:54:57 PM 40.8990 -71.0170 75° East 552 635 28,600 1,014 Climbing FlightAware ADS-B
Thu 09:55:33 PM 40.9400 -70.9000 65° Northeast 562 647 29,000 957 Climbing FlightAware ADS-B
Thu 09:56:06 PM 40.9850 -70.8070 57° Northeast 563 648 29,700 1,075 Climbing FlightAware ADS-B
Thu 09:56:40 PM 41.0320 -70.7070 58° Northeast 564 649 30,200 1,014 Climbing FlightAware ADS-B
Thu 09:57:17 PM 41.0840 -70.5950 58° Northeast 564 649 30,900 667 Climbing FlightAware ADS-B
Thu 09:57:52 PM 41.1310 -70.4950 58° Northeast 566 651 31,000 88 Climbing FlightAware ADS-B
Thu 09:58:25 PM 41.1770 -70.3980 58° Northeast 563 648 31,000  Level FlightAware ADS-B
Thu 09:59:01 PM 41.2270 -70.2900 58° Northeast 562 647 31,000  Level FlightAware ADS-B
Thu 09:59:36 PM 41.2720 -70.1930 58° Northeast 560 644 31,000  Level FlightAware ADS-B
Thu 10:00:20 PM 41.3260 -70.0760 58° Northeast 560 644 31,000  Level FlightAware ADS-B
Thu 10:00:56 PM 41.3680 -69.9870 58° Northeast 560 644 31,000  Level FlightAware ADS-B
Thu 10:01:33 PM 41.4110 -69.8950 58° Northeast 560 644 31,000  Level FlightAware ADS-B
Thu 10:02:09 PM 41.4530 -69.8050 58° Northeast 560 644 31,000  Level FlightAware ADS-B
Thu 10:02:51 PM 41.5330 -69.6130 61° Northeast 560 644 31,000  Level FlightAware ADS-B
Thu 10:03:26 PM 41.5770 -69.5120 60° Northeast 560 644 31,000  Level FlightAware ADS-B
Thu 10:04:05 PM 41.6290 -69.3920 60° Northeast 562 647 31,000  Level FlightAware ADS-B
Thu 10:04:35 PM 41.6700 -69.2990 59° Northeast 561 646 31,000  Level FlightAware ADS-B
Thu 10:05:10 PM 41.7120 -69.2030 60° Northeast 332 382 31,000  Level FlightAware ADS-B
Thu 10:05:49 PM 41.7640 -69.0830 60° Northeast 561 646 31,000  Level FlightAware ADS-B
Thu 10:06:36 PM 41.8250 -68.9420 60° Northeast 664 764 31,000  Level FlightAware ADS-B
Thu 10:07:21 PM 41.8820 -68.8090 60° Northeast 557 641 31,000  Level FlightAware ADS-B
Thu 10:07:43 PM 41.9121 -68.7395 60° Northeast 561 646 31,000  Level FlightAware ADS-B (KBOS)
Thu 10:08:13 PM 41.9490 -68.6521 60° Northeast 561 646 31,000  Level FlightAware ADS-B (KBOS)
Thu 10:09:02 PM 42.0142 -68.4976 60° Northeast 563 648 31,000  Level FlightAware ADS-B (KBOS)
Thu 10:09:35 PM 42.0567 -68.3974 60° Northeast 562 647 31,000  Level FlightAware ADS-B (KBOS)
Thu 10:10:11 PM 42.1031 -68.2882 60° Northeast 561 646 31,000  Level FlightAware ADS-B (KBOS)
Thu 10:10:42 PM 42.1421 -68.1943 61° Northeast 559 643 31,000  Level FlightAware ADS-B (KBOS)
Thu 10:11:22 PM 42.1906 -68.0793 60° Northeast 556 640 31,000  Level FlightAware ADS-B (KBOS)
Thu 10:12:08 PM 42.2507 -67.9348 61° Northeast 555 639 31,000  Level FlightAware ADS-B (KBOS)
Thu 10:13:13 PM 42.3180 -67.7760 60° Northeast 555 639 31,000  Level FlightAware ADS-B
Thu 10:13:49 PM 42.3580 -67.6840 60° Northeast 555 639 31,000  Level FlightAware ADS-B
Thu 10:14:24 PM 42.3960 -67.5950 60° Northeast 555 639 31,000  Level FlightAware ADS-B
Thu 10:15:01 PM 42.4360 -67.5000 60° Northeast 555 639 31,000  Level FlightAware ADS-B
Thu 10:15:37 PM 42.4750 -67.4080 60° Northeast 555 639 31,000  Level FlightAware ADS-B
Thu 10:16:13 PM 42.5150 -67.3150 60° Northeast 555 639 31,000  Level FlightAware ADS-B
Thu 10:16:49 PM 42.5540 -67.2230 60° Northeast 555 639 31,000  Level FlightAware ADS-B
Thu 10:17:25 PM 42.5930 -67.1310 60° Northeast 555 639 31,000  Level FlightAware ADS-B
Thu 10:18:01 PM 42.6330 -67.0380 60° Northeast 555 639 31,000  Level FlightAware ADS-B
Thu 10:18:40 PM 42.6750 -66.9380 60° Northeast 555 639 31,000  Level FlightAware ADS-B
Thu 10:19:16 PM 42.7140 -66.8450 60° Northeast 555 639 31,000  Level FlightAware ADS-B
Thu 10:19:53 PM 42.8070 -66.5210 69° East 31,000  Level FlightAware ADS-B
Thu 10:20:28 PM 42.8460 -66.4100 64° Northeast 555 639 31,000  Level FlightAware ADS-B
Thu 10:21:03 PM 42.8860 -66.3000 64° Northeast 555 639 31,000  Level FlightAware ADS-B
Thu 10:21:38 PM 42.9240 -66.1940 64° Northeast 554 638 31,000  Level FlightAware ADS-B
Thu 10:22:19 PM 42.9700 -66.0650 64° Northeast 553 636 31,000  Level FlightAware ADS-B
Thu 10:22:53 PM 43.0080 -65.9580 64° Northeast 552 635 31,000  Level FlightAware ADS-B
Thu 10:23:28 PM 43.0480 -65.8450 64° Northeast 549 632 31,000  Level FlightAware ADS-B
Thu 10:24:08 PM 43.0910 -65.7190 65° Northeast 550 633 31,000  Level FlightAware ADS-B
Thu 10:24:43 PM 43.1300 -65.6080 64° Northeast 550 633 31,000  Level FlightAware ADS-B
Thu 10:25:13 PM 43.1630 -65.5130 65° Northeast 550 633 31,000  Level FlightAware ADS-B
Thu 10:25:53 PM 43.2070 -65.3870 64° Northeast 550 633 31,000  Level FlightAware ADS-B
Thu 10:26:28 PM 43.2440 -65.2790 65° Northeast 549 632 31,000  Level FlightAware ADS-B
Thu 10:26:58 PM 43.2770 -65.1810 65° Northeast 550 633 31,000  Level FlightAware ADS-B
Thu 10:27:38 PM 43.3200 -65.0540 65° Northeast 549 632 31,000  Level FlightAware ADS-B
Thu 10:28:13 PM 43.3590 -64.9430 64° Northeast 548 631 31,000  Level FlightAware ADS-B
Thu 10:28:43 PM 43.3900 -64.8510 65° Northeast 547 629 31,000  Level FlightAware ADS-B
Thu 10:29:18 PM 43.4280 -64.7370 65° Northeast 549 632 31,000  Level FlightAware ADS-B
Thu 10:29:58 PM 43.4690 -64.6130 65° Northeast 548 631 31,000  Level FlightAware ADS-B
Thu 10:30:45 PM 43.5120 -64.4900 64° Northeast 548 631 31,000  Level FlightAware ADS-B
Thu 10:31:21 PM 43.5440 -64.3930 66° East 548 631 31,000  Level FlightAware ADS-B
Thu 10:31:57 PM 43.5770 -64.2960 65° Northeast 548 631 31,000  Level FlightAware ADS-B
Thu 10:32:33 PM 43.6100 -64.1990 65° Northeast 548 631 31,000  Level FlightAware ADS-B
Thu 10:33:07 PM 43.6410 -64.1070 65° Northeast 548 631 31,000  Level FlightAware ADS-B
Thu 10:33:43 PM 43.6740 -64.0100 65° Northeast 548 631 31,000  Level FlightAware ADS-B
Thu 10:34:19 PM 43.7060 -63.9130 65° Northeast 548 631 31,000  Level FlightAware ADS-B
Thu 10:34:55 PM 43.7390 -63.8150 65° Northeast 548 631 31,000  Level FlightAware ADS-B
Thu 10:37:54 PM 43.9620 -63.1040 66° East 551 634 31,000  Level FlightAware ADS-B
Thu 10:38:31 PM 43.9940 -63.0030 66° East 551 634 31,000  Level FlightAware ADS-B
Thu 10:39:23 PM 44.0560 -62.8020 67° East 554 638 31,000  Level FlightAware ADS-B
Thu 10:40:04 PM 44.0910 -62.6900 66° East 554 638 31,000  Level FlightAware ADS-B
Thu 10:40:40 PM 44.1220 -62.5900 67° East 554 638 31,000  Level FlightAware ADS-B
Thu 10:41:16 PM 44.1520 -62.4890 67° East 554 638 31,000  Level FlightAware ADS-B
Thu 10:41:52 PM 44.1830 -62.3890 67° East 554 638 31,000  Level FlightAware ADS-B
Thu 10:42:23 PM 44.2390 -62.2130 66° East 556 640 31,000  Level FlightAware ADS-B
Thu 10:42:57 PM 44.2690 -62.1150 67° East 556 640 31,000  Level FlightAware ADS-B
Thu 10:43:33 PM 44.2990 -62.0140 67° East 556 640 31,000  Level FlightAware ADS-B
Thu 10:43:41 PM 44.0680 -62.7660 247° West 31,000  Level FlightAware ADS-B
Thu 10:44:25 PM 44.3500 -61.8000 247° West 560 644 31,000  Level Gander Center
Thu 10:50:28 PM 44.7190 -60.5920 247° West 567 652 31,000  Level FlightAware ADS-B
Thu 10:51:04 PM 44.7550 -60.4650 68° East 568 654 31,000  Level FlightAware ADS-B
Thu 10:51:39 PM 44.7890 -60.3480 68° East 569 655 31,000  Level FlightAware ADS-B
Thu 10:52:16 PM 44.8250 -60.2180 69° East 568 654 31,000  Level FlightAware ADS-B
Thu 10:52:49 PM 44.8570 -60.1080 68° East 567 652 31,000  Level FlightAware ADS-B
Thu 10:53:26 PM 44.8930 -59.9810 68° East 567 652 31,000  Level FlightAware ADS-B
Thu 10:53:58 PM 44.9240 -59.8670 69° East 566 651 31,000  Level FlightAware ADS-B
Thu 10:54:34 PM 44.9580 -59.7440 69° East 564 649 31,000  Level FlightAware ADS-B
Thu 10:55:10 PM 44.9920 -59.6210 69° East 563 648 31,000  Level FlightAware ADS-B
Thu 10:55:42 PM 45.0220 -59.5110 69° East 562 647 31,000  Level FlightAware ADS-B
Thu 10:56:20 PM 45.0580 -59.3810 69° East 563 648 31,000  Level FlightAware ADS-B
Thu 10:56:54 PM 45.0900 -59.2640 69° East 564 649 31,000  Level FlightAware ADS-B
Thu 10:57:30 PM 45.1230 -59.1400 69° East 563 648 31,000  Level FlightAware ADS-B
Thu 10:58:02 PM 45.1530 -59.0300 69° East 564 649 31,000  Level FlightAware ADS-B
Thu 10:58:40 PM 45.1880 -58.8990 69° East 565 650 31,000  Level FlightAware ADS-B
Thu 10:59:16 PM 45.2220 -58.7740 69° East 567 652 31,000  Level FlightAware ADS-B
Thu 10:59:48 PM 45.2520 -58.6590 70° East 567 652 31,000  Level FlightAware ADS-B
Thu 11:00:24 PM 45.2840 -58.5370 70° East 567 652 31,000  Level FlightAware ADS-B
Thu 11:01:00 PM 45.3170 -58.4110 70° East 567 652 31,000  Level FlightAware ADS-B
Thu 11:01:34 PM 45.3480 -58.2920 70° East 567 652 31,000  Level FlightAware ADS-B
Thu 11:02:11 PM 45.3810 -58.1670 69° East 566 651 31,000  Level FlightAware ADS-B
Thu 11:02:43 PM 45.4110 -58.0520 70° East 565 650 31,000  Level FlightAware ADS-B
Thu 11:03:18 PM 45.4420 -57.9300 70° East 564 649 31,000  Level FlightAware ADS-B
Thu 11:03:52 PM 45.4720 -57.8110 70° East 564 649 31,000  Level FlightAware ADS-B
Thu 11:04:48 PM 45.5180 -57.6330 70° East 563 648 31,000  Level FlightAware ADS-B
Thu 11:05:24 PM 45.5450 -57.5260 70° East 563 648 31,000  Level FlightAware ADS-B
Thu 11:06:00 PM 45.5730 -57.4190 69° East 563 648 31,000  Level FlightAware ADS-B
Thu 11:06:38 PM 45.6010 -57.3060 70° East 563 648 31,000  Level FlightAware ADS-B
Thu 11:07:02 PM 45.6190 -57.2350 70° East 563 648 31,000  Level FlightAware ADS-B
Thu 11:07:45 PM 45.6750 -57.0040 71° East 562 647 31,000  Level FlightAware ADS-B
Thu 11:08:22 PM 45.7080 -56.8680 71° East 562 647 31,000  Level FlightAware ADS-B
Thu 11:09:02 PM 45.7430 -56.7270 70° East 564 649 31,000  Level FlightAware ADS-B
Thu 11:09:38 PM 45.7720 -56.6030 71° East 565 650 31,000  Level FlightAware ADS-B
Thu 11:10:10 PM 45.7990 -56.4980 70° East 565 650 31,000  Level FlightAware ADS-B
Thu 11:10:48 PM 45.8320 -56.3560 72° East 565 650 31,000  Level FlightAware ADS-B
Thu 11:11:28 PM 45.8660 -56.2140 71° East 566 651 31,000 158 Level FlightAware ADS-B
Thu 11:12:04 PM 45.8950 -56.0810 73° East 570 656 31,200 696 Climbing FlightAware ADS-B
Thu 11:12:37 PM 45.9200 -55.9660 73° East 569 655 31,800 1,130 Climbing FlightAware ADS-B
Thu 11:13:13 PM 45.9470 -55.8350 73° East 569 655 32,500 930 Climbing FlightAware ADS-B
Thu 11:13:48 PM 45.9740 -55.7080 73° East 572 658 32,900 417 Climbing FlightAware ADS-B
Thu 11:14:25 PM 46.0020 -55.5690 74° East 575 662 33,000 87 Climbing FlightAware ADS-B
Thu 11:14:57 PM 46.0260 -55.4560 73° East 575 662 33,000  Level FlightAware ADS-B
Thu 11:15:34 PM 46.0540 -55.3170 74° East 572 658 33,000  Level FlightAware ADS-B
Thu 11:16:06 PM 46.0780 -55.1960 74° East 572 658 33,000  Level FlightAware ADS-B
Thu 11:16:46 PM 46.1070 -55.0540 74° East 572 658 33,000  Level FlightAware ADS-B
Thu 11:17:18 PM 46.1310 -54.9370 73° East 573 659 33,000  Level FlightAware ADS-B
Thu 11:17:55 PM 46.1580 -54.8010 74° East 573 659 33,000  Level FlightAware ADS-B
Thu 11:18:30 PM 46.1840 -54.6730 74° East 572 658 33,000  Level FlightAware ADS-B
Thu 11:19:07 PM 46.2100 -54.5410 74° East 571 657 33,000  Level FlightAware ADS-B
Thu 11:19:39 PM 46.2330 -54.4200 75° East 572 658 33,000  Level FlightAware ADS-B
Thu 11:20:14 PM 46.2580 -54.2920 74° East 571 657 33,000  Level FlightAware ADS-B
Thu 11:20:50 PM 46.2840 -54.1590 74° East 571 657 33,000  Level FlightAware ADS-B
Thu 11:21:25 PM 46.3080 -54.0310 75° East 571 657 33,000  Level FlightAware ADS-B
Thu 11:22:00 PM 46.3330 -53.9020 74° East 572 658 33,000  Level FlightAware ADS-B
Thu 11:22:35 PM 46.3570 -53.7760 75° East 572 658 33,000  Level FlightAware ADS-B
Thu 11:23:10 PM 46.3810 -53.6470 75° East 573 659 33,000  Level FlightAware ADS-B
Thu 11:23:46 PM 46.4070 -53.5110 74° East 572 658 33,000  Level FlightAware ADS-B
Thu 11:24:20 PM 46.4300 -53.3850 75° East 573 659 33,000  Level FlightAware ADS-B
Thu 11:24:53 PM 46.4530 -53.2630 75° East 573 659 33,000  Level FlightAware ADS-B
Thu 11:25:30 PM 46.4780 -53.1250 75° East 573 659 33,000  Level FlightAware ADS-B
Thu 11:26:06 PM 46.5020 -52.9920 75° East 573 659 33,000  Level FlightAware ADS-B
Thu 11:26:41 PM 46.5260 -52.8610 75° East 575 662 33,000  Level FlightAware ADS-B
Thu 11:27:12 PM 46.5460 -52.7450 76° East 576 663 33,000  Level FlightAware ADS-B
Thu 11:27:48 PM 46.5700 -52.6100 75° East 578 665 33,000  Level FlightAware ADS-B
Thu 11:28:25 PM 46.5950 -52.4710 75° East 578 665 33,000  Level FlightAware ADS-B
Thu 11:29:02 PM 46.6200 -52.3280 76° East 580 667 33,000  Level FlightAware ADS-B
Thu 11:29:34 PM 46.6410 -52.2110 75° East 582 670 33,000  Level FlightAware ADS-B
Thu 11:30:09 PM 46.6630 -52.0780 76° East 581 669 33,000  Level FlightAware ADS-B
Thu 11:30:42 PM 46.6850 -51.9530 76° East 582 670 33,000  Level FlightAware ADS-B
Thu 11:31:19 PM 46.7090 -51.8120 76° East 581 669 33,000  Level FlightAware ADS-B
Thu 11:31:56 PM 46.7320 -51.6760 76° East 579 666 33,000  Level FlightAware ADS-B
Thu 11:32:32 PM 46.7550 -51.5400 76° East 579 666 33,000  Level FlightAware ADS-B
Thu 11:33:03 PM 46.7750 -51.4190 76° East 579 666 33,000  Level FlightAware ADS-B
Thu 11:33:40 PM 46.7980 -51.2780 77° East 580 667 33,000  Level FlightAware ADS-B
Thu 11:34:16 PM 46.8200 -51.1410 77° East 581 669 33,000  Level FlightAware ADS-B
Thu 11:34:47 PM 46.8400 -51.0220 76° East 582 670 33,000  Level FlightAware ADS-B
Thu 11:35:25 PM 46.8630 -50.8770 77° East 582 670 33,000  Level FlightAware ADS-B
Thu 11:36:00 PM 46.8850 -50.7430 76° East 585 673 33,000  Level FlightAware ADS-B
Thu 11:36:35 PM 46.9060 -50.6080 77° East 587 676 33,000  Level FlightAware ADS-B
Thu 11:37:14 PM 46.9280 -50.4800 76° East 587 676 33,000  Level FlightAware ADS-B
Thu 11:37:51 PM 46.9490 -50.3590 76° East 587 676 33,000  Level FlightAware ADS-B
Thu 11:38:26 PM 46.9730 -50.1810 79° East 591 680 33,000  Level FlightAware ADS-B
Thu 11:39:02 PM 46.9950 -50.0330 78° East 592 681 33,000  Level FlightAware ADS-B
Thu 11:39:37 PM 47.0150 -49.8990 78° East 595 685 33,000  Level FlightAware ADS-B
Thu 11:40:14 PM 47.0360 -49.7530 78° East 597 687 33,000  Level FlightAware ADS-B
Thu 11:40:46 PM 47.0540 -49.6270 78° East 597 687 33,000  Level FlightAware ADS-B
Thu 11:41:23 PM 47.0750 -49.4800 78° East 597 687 33,000  Level FlightAware ADS-B
Thu 11:41:55 PM 47.0930 -49.3530 78° East 598 688 33,000  Level FlightAware ADS-B
Thu 11:42:32 PM 47.1130 -49.2060 79° East 597 687 33,000  Level FlightAware ADS-B
Thu 11:43:09 PM 47.1340 -49.0590 78° East 597 687 33,000  Level FlightAware ADS-B
Thu 11:43:40 PM 47.1500 -48.9360 79° East 596 686 33,000  Level FlightAware ADS-B
Thu 11:44:14 PM 47.1680 -48.8060 78° East 595 685 33,000  Level FlightAware ADS-B
Thu 11:44:54 PM 47.1890 -48.6470 79° East 594 684 33,000  Level FlightAware ADS-B
Thu 11:45:36 PM 47.2100 -48.4960 78° East 594 684 33,000  Level FlightAware ADS-B
Thu 11:46:12 PM 47.2280 -48.3750 78° East 594 684 33,000  Level FlightAware ADS-B
Thu 11:46:48 PM 47.2460 -48.2150 81° East 592 681 33,000  Level FlightAware ADS-B
Thu 11:47:25 PM 47.2630 -48.0910 79° East 592 681 33,000  Level FlightAware ADS-B
Thu 11:48:02 PM 47.2790 -47.9660 79° East 592 681 33,000  Level FlightAware ADS-B
Thu 11:48:38 PM 47.2950 -47.8450 79° East 592 681 33,000  Level FlightAware ADS-B
Thu 11:49:15 PM 47.3120 -47.7200 79° East 592 681 33,000  Level FlightAware ADS-B
Thu 11:49:51 PM 47.3280 -47.5990 79° East 592 681 33,000  Level FlightAware ADS-B
Thu 11:50:25 PM 47.3430 -47.4840 79° East 592 681 33,000  Level FlightAware ADS-B
Thu 11:51:01 PM 47.3590 -47.3630 79° East 592 681 33,000  Level FlightAware ADS-B
Thu 11:51:38 PM 47.3750 -47.2380 79° East 592 681 33,000  Level FlightAware ADS-B
Thu 11:52:14 PM 47.3910 -47.1160 79° East 592 681 33,000  Level FlightAware ADS-B
Thu 11:52:50 PM 47.4070 -46.9950 79° East 592 681 33,000  Level FlightAware ADS-B
Thu 11:53:26 PM 47.4230 -46.8730 79° East 592 681 33,000  Level FlightAware ADS-B
Thu 11:54:02 PM 47.4390 -46.7520 79° East 592 681 33,000  Level FlightAware ADS-B
Thu 11:54:38 PM 47.4550 -46.6300 79° East 592 681 33,000  Level FlightAware ADS-B
Thu 11:55:14 PM 47.4710 -46.5080 79° East 592 681 33,000  Level FlightAware ADS-B
Thu 11:55:50 PM 47.4870 -46.3870 79° East 592 681 33,000 Level FlightAware ADS-B
Fri 12:01:00 AM 47.6027 -45.2746 81° East  Level FlightAware Approximate
Fri 12:02:00 AM 47.6238 -45.0588 82° East  Level FlightAware Approximate
Fri 12:03:00 AM 47.6446 -44.8427 82° East  Level FlightAware Approximate
Fri 12:04:00 AM 47.6649 -44.6265 82° East  Level FlightAware Approximate
Fri 12:05:00 AM 47.6848 -44.4102 82° East  Level FlightAware Approximate
Fri 12:06:00 AM 47.7044 -44.1936 82° East  Level FlightAware Approximate
Fri 12:07:00 AM 47.7235 -43.9769 82° East  Level FlightAware Approximate
Fri 12:08:00 AM 47.7422 -43.7601 83° East  Level FlightAware Approximate
Fri 12:09:00 AM 47.7605 -43.5431 83° East  Level FlightAware Approximate
Fri 12:10:00 AM 47.7784 -43.3259 83° East  Level FlightAware Approximate
Fri 12:11:00 AM 47.7959 -43.1086 83° East  Level FlightAware Approximate
Fri 12:12:00 AM 47.8129 -42.8912 83° East  Level FlightAware Approximate
Fri 12:13:00 AM 47.8296 -42.6736 83° East  Level FlightAware Approximate
Fri 12:14:00 AM 47.8458 -42.4559 84° East  Level FlightAware Approximate
Fri 12:15:00 AM 47.8617 -42.2380 84° East  Level FlightAware Approximate
Fri 12:16:00 AM 47.8771 -42.0200 84° East  Level FlightAware Approximate
Fri 12:17:00 AM 47.8921 -41.8019 84° East  Level FlightAware Approximate
Fri 12:18:00 AM 47.9067 -41.5837 84° East  Level FlightAware Approximate
Fri 12:19:00 AM 47.9209 -41.3653 84° East  Level FlightAware Approximate
Fri 12:20:00 AM 47.9346 -41.1468 85° East  Level FlightAware Approximate
Fri 12:21:00 AM 47.9480 -40.9282 85° East  Level FlightAware Approximate
Fri 12:22:00 AM 47.9609 -40.7095 85° East  Level FlightAware Approximate
Fri 12:23:00 AM 47.9734 -40.4924 85° East  Level FlightAware Approximate
Fri 12:24:00 AM 47.9854 -40.2751 85° East  Level FlightAware Approximate
Fri 12:25:00 AM 47.9970 -40.0578 85° East  Level FlightAware Approximate
Fri 12:26:00 AM 48.0227 -39.8434 78° East  Level FlightAware Approximate
Fri 12:27:00 AM 48.0534 -39.6301 78° East  Level FlightAware Approximate
Fri 12:28:00 AM 48.0836 -39.4164 78° East  Level FlightAware Approximate
Fri 12:29:00 AM 48.1134 -39.2025 78° East  Level FlightAware Approximate
Fri 12:30:00 AM 48.1428 -38.9884 78° East  Level FlightAware Approximate
Fri 12:31:00 AM 48.1719 -38.7740 78° East  Level FlightAware Approximate
Fri 12:32:00 AM 48.2005 -38.5594 79° East  Level FlightAware Approximate
Fri 12:33:00 AM 48.2288 -38.3446 79° East  Level FlightAware Approximate
Fri 12:34:00 AM 48.2566 -38.1295 79° East  Level FlightAware Approximate
Fri 12:35:00 AM 48.2840 -37.9141 79° East  Level FlightAware Approximate
Fri 12:36:00 AM 48.3111 -37.6986 79° East  Level FlightAware Approximate
Fri 12:37:00 AM 48.3377 -37.4828 79° East  Level FlightAware Approximate
Fri 12:38:00 AM 48.3639 -37.2668 80° East  Level FlightAware Approximate
Fri 12:39:00 AM 48.3898 -37.0506 80° East  Level FlightAware Approximate
Fri 12:40:00 AM 48.4152 -36.8341 80° East  Level FlightAware Approximate
Fri 12:41:00 AM 48.4402 -36.6175 80° East  Level FlightAware Approximate
Fri 12:42:00 AM 48.4648 -36.4006 80° East  Level FlightAware Approximate
Fri 12:43:00 AM 48.4890 -36.1835 80° East  Level FlightAware Approximate
Fri 12:44:00 AM 48.5127 -35.9662 81° East  Level FlightAware Approximate
Fri 12:45:00 AM 48.5361 -35.7487 81° East  Level FlightAware Approximate
Fri 12:46:00 AM 48.5591 -35.5311 81° East  Level FlightAware Approximate
Fri 12:47:00 AM 48.5816 -35.3132 81° East  Level FlightAware Approximate
Fri 12:48:00 AM 48.6038 -35.0951 81° East  Level FlightAware Approximate
Fri 12:49:00 AM 48.6255 -34.8769 81° East  Level FlightAware Approximate
Fri 12:50:00 AM 48.6468 -34.6584 82° East  Level FlightAware Approximate
Fri 12:51:00 AM 48.6678 -34.4398 82° East  Level FlightAware Approximate
Fri 12:52:00 AM 48.6882 -34.2210 82° East  Level FlightAware Approximate
Fri 12:53:00 AM 48.7083 -34.0020 82° East  Level FlightAware Approximate
Fri 12:54:00 AM 48.7280 -33.7828 82° East  Level FlightAware Approximate
Fri 12:55:00 AM 48.7472 -33.5635 82° East  Level FlightAware Approximate
Fri 12:56:00 AM 48.7660 -33.3440 83° East  Level FlightAware Approximate
Fri 12:57:00 AM 48.7845 -33.1243 83° East  Level FlightAware Approximate
Fri 12:58:00 AM 48.8024 -32.9045 83° East  Level FlightAware Approximate
Fri 12:59:00 AM 48.8200 -32.6845 83° East  Level FlightAware Approximate
Fri 01:00:00 AM 48.8372 -32.4644 83° East  Level FlightAware Approximate
Fri 01:01:00 AM 48.8539 -32.2441 83° East  Level FlightAware Approximate
Fri 01:02:00 AM 48.8703 -32.0237 83° East  Level FlightAware Approximate
Fri 01:03:00 AM 48.8862 -31.8031 84° East  Level FlightAware Approximate
Fri 01:04:00 AM 48.9016 -31.5824 84° East  Level FlightAware Approximate
Fri 01:05:00 AM 48.9167 -31.3616 84° East  Level FlightAware Approximate
Fri 01:06:00 AM 48.9313 -31.1406 84° East  Level FlightAware Approximate
Fri 01:07:00 AM 48.9455 -30.9195 84° East  Level FlightAware Approximate
Fri 01:08:00 AM 48.9593 -30.6983 84° East  Level FlightAware Approximate
Fri 01:09:00 AM 48.9727 -30.4769 85° East  Level FlightAware Approximate
Fri 01:10:00 AM 48.9856 -30.2559 85° East  Level FlightAware Approximate
Fri 01:11:00 AM 48.9981 -30.0347 85° East  Level FlightAware Approximate
Fri 01:12:00 AM 49.0262 -29.8171 78° East  Level FlightAware Approximate
Fri 01:13:00 AM 49.0570 -29.5998 78° East  Level FlightAware Approximate
Fri 01:14:00 AM 49.0873 -29.3823 78° East  Level FlightAware Approximate
Fri 01:15:00 AM 49.1172 -29.1646 78° East  Level FlightAware Approximate
Fri 01:16:00 AM 49.1467 -28.9466 78° East  Level FlightAware Approximate
Fri 01:17:00 AM 49.1758 -28.7283 78° East  Level FlightAware Approximate
Fri 01:18:00 AM 49.2045 -28.5098 79° East  Level FlightAware Approximate
Fri 01:19:00 AM 49.2328 -28.2910 79° East  Level FlightAware Approximate
Fri 01:20:00 AM 49.2606 -28.0720 79° East  Level FlightAware Approximate
Fri 01:21:00 AM 49.2881 -27.8527 79° East  Level FlightAware Approximate
Fri 01:22:00 AM 49.3151 -27.6332 79° East  Level FlightAware Approximate
Fri 01:23:00 AM 49.3417 -27.4134 79° East  Level FlightAware Approximate
Fri 01:24:00 AM 49.3679 -27.1935 80° East  Level FlightAware Approximate
Fri 01:25:00 AM 49.3937 -26.9732 80° East  Level FlightAware Approximate
Fri 01:26:00 AM 49.4190 -26.7528 80° East  Level FlightAware Approximate
Fri 01:27:00 AM 49.4440 -26.5321 80° East  Level FlightAware Approximate
Fri 01:28:00 AM 49.4685 -26.3112 80° East  Level FlightAware Approximate
Fri 01:29:00 AM 49.4926 -26.0901 80° East  Level FlightAware Approximate
Fri 01:30:00 AM 49.5163 -25.8687 81° East  Level FlightAware Approximate
Fri 01:31:00 AM 49.5395 -25.6472 81° East  Level FlightAware Approximate
Fri 01:32:00 AM 49.5624 -25.4254 81° East  Level FlightAware Approximate
Fri 01:33:00 AM 49.5848 -25.2035 81° East  Level FlightAware Approximate
Fri 01:34:00 AM 49.6070 -24.9814 81° East  Level FlightAware Approximate
Fri 01:35:00 AM 49.6292 -24.7592 81° East  Level FlightAware Approximate
Fri 01:36:00 AM 49.6510 -24.5368 81° East  Level FlightAware Approximate
Fri 01:37:00 AM 49.6724 -24.3142 81° East  Level FlightAware Approximate
Fri 01:38:00 AM 49.6934 -24.0914 82° East  Level FlightAware Approximate
Fri 01:39:00 AM 49.7139 -23.8684 82° East  Level FlightAware Approximate
Fri 01:40:00 AM 49.7340 -23.6452 82° East  Level FlightAware Approximate
Fri 01:41:00 AM 49.7537 -23.4219 82° East  Level FlightAware Approximate
Fri 01:42:00 AM 49.7730 -23.1983 82° East  Level FlightAware Approximate
Fri 01:43:00 AM 49.7918 -22.9746 82° East  Level FlightAware Approximate
Fri 01:44:00 AM 49.8102 -22.7507 83° East  Level FlightAware Approximate
Fri 01:45:00 AM 49.8281 -22.5267 83° East  Level FlightAware Approximate
Fri 01:46:00 AM 49.8457 -22.3025 83° East  Level FlightAware Approximate
Fri 01:47:00 AM 49.8628 -22.0781 83° East  Level FlightAware Approximate
Fri 01:48:00 AM 49.8794 -21.8535 83° East  Level FlightAware Approximate
Fri 01:49:00 AM 49.8956 -21.6289 84° East  Level FlightAware Approximate
Fri 01:50:00 AM 49.9114 -21.4040 84° East  Level FlightAware Approximate
Fri 01:51:00 AM 49.9268 -21.1790 84° East  Level FlightAware Approximate
Fri 01:52:00 AM 49.9417 -20.9539 84° East  Level FlightAware Approximate
Fri 01:53:00 AM 49.9562 -20.7286 84° East  Level FlightAware Approximate
Fri 01:54:00 AM 49.9702 -20.5033 84° East  Level FlightAware Approximate
Fri 01:55:00 AM 49.9838 -20.2777 85° East  Level FlightAware Approximate
Fri 01:56:00 AM 49.9970 -20.0525 85° East  Level FlightAware Approximate
Fri 01:57:00 AM 49.9946 -19.8267 93° East  Level FlightAware Approximate
Fri 01:58:00 AM 49.9871 -19.6008 93° East  Level FlightAware Approximate
Fri 01:59:00 AM 49.9792 -19.3750 93° East  Level FlightAware Approximate
Fri 02:00:00 AM 49.9709 -19.1493 93° East  Level FlightAware Approximate
Fri 02:01:00 AM 49.9622 -18.9236 93° East  Level FlightAware Approximate
Fri 02:02:00 AM 49.9529 -18.6980 94° East  Level FlightAware Approximate
Fri 02:03:00 AM 49.9433 -18.4726 94° East  Level FlightAware Approximate
Fri 02:04:00 AM 49.9332 -18.2472 94° East  Level FlightAware Approximate
Fri 02:05:00 AM 49.9227 -18.0219 94° East  Level FlightAware Approximate
Fri 02:06:00 AM 49.9118 -17.7967 94° East  Level FlightAware Approximate
Fri 02:07:00 AM 49.9004 -17.5716 94° East  Level FlightAware Approximate
Fri 02:08:00 AM 49.8886 -17.3466 95° East  Level FlightAware Approximate
Fri 02:09:00 AM 49.8763 -17.1217 95° East  Level FlightAware Approximate
Fri 02:10:00 AM 49.8635 -16.8970 95° East  Level FlightAware Approximate
Fri 02:11:00 AM 49.8497 -16.6725 95° East  Level FlightAware Approximate
Fri 02:12:00 AM 49.8355 -16.4480 96° East  Level FlightAware Approximate
Fri 02:13:00 AM 49.8209 -16.2238 96° East  Level FlightAware Approximate
Fri 02:14:00 AM 49.8059 -15.9996 96° East  Level FlightAware Approximate
Fri 02:15:00 AM 49.7904 -15.7756 96° East  Level FlightAware Approximate
Fri 02:16:00 AM 49.7744 -15.5518 96° East  Level FlightAware Approximate
Fri 02:17:00 AM 49.7581 -15.3281 96° East  Level FlightAware Approximate
Fri 02:18:00 AM 49.7413 -15.1045 97° East  Level FlightAware Approximate
Fri 02:19:00 AM 49.7242 -14.8811 97° East  Level FlightAware Approximate
Fri 02:20:00 AM 49.7066 -14.6579 97° East  Level FlightAware Approximate
Fri 02:21:00 AM 49.6886 -14.4348 97° East  Level FlightAware Approximate
Fri 02:22:00 AM 49.6701 -14.2119 97° East  Level FlightAware Approximate
Fri 02:23:00 AM 49.6512 -13.9892 97° East  Level FlightAware Approximate
Fri 02:24:00 AM 49.6320 -13.7666 98° East  Level FlightAware Approximate
Fri 02:25:00 AM 49.6122 -13.5442 98° East  Level FlightAware Approximate
Fri 02:26:00 AM 49.5921 -13.3220 98° East  Level FlightAware Approximate
Fri 02:27:00 AM 49.5715 -13.1000 98° East  Level FlightAware Approximate
Fri 02:28:00 AM 49.5505 -12.8781 98° East  Level FlightAware Approximate
Fri 02:29:00 AM 49.5306 -12.6562 95° East  Level FlightAware Approximate
Fri 02:30:00 AM 49.5167 -12.4332 98° East  Level FlightAware Approximate
Fri 02:31:00 AM 49.4951 -12.2118 98° East  Level FlightAware Approximate
Fri 02:32:00 AM 49.4731 -11.9905 99° East  Level FlightAware Approximate
Fri 02:33:00 AM 49.4507 -11.7694 99° East  Level FlightAware Approximate
Fri 02:34:00 AM 49.4279 -11.5486 99° East  Level FlightAware Approximate
Fri 02:35:00 AM 49.4047 -11.3279 99° East  Level FlightAware Approximate
Fri 02:36:00 AM 49.3810 -11.1075 99° East  Level FlightAware Approximate
Fri 02:37:00 AM 49.3569 -10.8873 99° East  Level FlightAware Approximate
Fri 02:38:00 AM 49.3324 -10.6672 100° East  Level FlightAware Approximate
Fri 02:39:00 AM 49.3075 -10.4475 100° East  Level FlightAware Approximate
Fri 02:40:00 AM 49.2822 -10.2279 100° East  Level FlightAware Approximate
Fri 02:41:00 AM 49.2565 -10.0086 100° East  Level FlightAware Approximate
Fri 02:41:37 AM 49.3710 -10.0300 100° East 513 590 34,000  Level FlightAware ADS-B
Fri 02:42:00 AM 49.2303 -9.7895 100° East  Level FlightAware Approximate
Fri 02:42:09 AM 49.3550 -9.9200 103° East 513 590 34,000  Level FlightAware ADS-B
Fri 02:42:47 AM 49.3370 -9.8050 103° East 513 590 34,000  Level FlightAware ADS-B
Fri 02:43:23 AM 49.3210 -9.6970 103° East 513 590 34,000  Level FlightAware ADS-B
Fri 02:43:55 AM 49.2970 -9.5450 104° East 514 592 34,000  Level FlightAware ADS-B
Fri 02:44:35 AM 49.2790 -9.4240 103° East 514 592 34,000  Level FlightAware ADS-B
Fri 02:45:10 AM 49.2560 -9.2760 103° East 515 593 34,000  Level FlightAware ADS-B
Fri 02:45:49 AM 49.2370 -9.1550 103° East 516 594 34,000  Level FlightAware ADS-B
Fri 02:46:25 AM 49.2130 -9.0100 104° East 517 595 34,000  Level FlightAware ADS-B
Fri 02:47:00 AM 49.1940 -8.8890 104° East 517 595 34,000  Level FlightAware ADS-B
Fri 02:47:02 AM 49.1921 -8.8755 104° East 502 578 34,000  Level FlightAware UK
Fri 02:47:32 AM 49.1748 -8.7693 104° East 502 578 34,000  Level FlightAware UK
Fri 02:47:35 AM 49.1730 -8.7590 104° East 516 594 34,000  Level FlightAware ADS-B
Fri 02:48:13 AM 49.1520 -8.6320 104° East 514 592 34,000  Level FlightAware ADS-B
Fri 02:48:45 AM 49.1330 -8.5190 104° East 514 592 34,000  Level FlightAware ADS-B
Fri 02:49:21 AM 49.1130 -8.3930 104° East 513 590 34,000  Level FlightAware ADS-B
Fri 02:49:57 AM 49.0910 -8.2630 104° East 514 592 34,000  Level FlightAware ADS-B
Fri 02:50:31 AM 49.0710 -8.1470 104° East 515 593 34,000  Level FlightAware ADS-B
Fri 02:50:32 AM 49.0691 -8.1354 104° East 494 568 34,000  Level FlightAware UK
Fri 02:51:02 AM 49.0513 -8.0298 104° East 496 571 34,000  Level FlightAware UK
Fri 02:51:05 AM 49.0510 -8.0240 104° East 518 596 34,000  Level FlightAware ADS-B
Fri 02:51:41 AM 49.0230 -7.8990 109° East 524 603 34,000  Level FlightAware ADS-B
Fri 02:52:17 AM 48.9920 -7.7750 111° Southeast 524 603 34,000  Level FlightAware ADS-B
Fri 02:52:53 AM 48.9590 -7.6490 112° Southeast 522 601 34,000 88 Level FlightAware ADS-B
Fri 02:53:25 AM 48.9310 -7.5430 112° Southeast 524 603 34,100 716 Climbing FlightAware ADS-B
Fri 02:54:00 AM 48.8990 -7.4230 112° Southeast 524 603 34,800 1,135 Climbing FlightAware ADS-B
Fri 02:54:02 AM 48.8967 -7.4129 112° Southeast 498 573 34,800 375 Level FlightAware UK
Fri 02:54:32 AM 48.8693 -7.3101 112° Southeast 500 575 35,000 364 Climbing FlightAware UK
Fri 02:54:35 AM 48.8700 -7.3140 112° Southeast 526 605 35,000  Level FlightAware ADS-B
Fri 02:55:11 AM 48.8350 -7.1810 112° Southeast 524 603 35,000  Level FlightAware ADS-B
Fri 02:55:47 AM 48.8030 -7.0620 112° Southeast 523 602 35,000  Level FlightAware ADS-B
Fri 02:56:21 AM 48.7710 -6.9430 112° Southeast 523 602 35,000  Level FlightAware ADS-B
Fri 02:56:57 AM 48.7380 -6.8240 113° Southeast 524 603 35,000  Level FlightAware ADS-B
Fri 02:57:29 AM 48.7090 -6.7160 112° Southeast 524 603 35,000  Level FlightAware ADS-B
Fri 02:58:03 AM 48.6760 -6.5944 112° Southeast 494 568 35,000  Level FlightAware UK
Fri 02:58:08 AM 48.6740 -6.5870 112° Southeast 525 604 35,000  Level FlightAware ADS-B
Fri 02:58:39 AM 48.6430 -6.4750 113° Southeast 527 606 35,000  Level FlightAware ADS-B
Fri 02:59:16 AM 48.6090 -6.3490 112° Southeast 531 611 35,000  Level FlightAware ADS-B
Fri 02:59:53 AM 48.5730 -6.2230 113° Southeast 533 613 35,000  Level FlightAware ADS-B
Fri 03:00:26 AM 48.5420 -6.1090 112° Southeast 536 617 35,000  Level FlightAware ADS-B
Fri 03:01:02 AM 48.5060 -5.9850 114° Southeast 537 618 35,000  Level FlightAware ADS-B
Fri 03:01:33 AM 48.4764 -5.8769 114° Southeast 492 566 35,000  Level FlightAware UK
Fri 03:01:35 AM 48.4740 -5.8720 114° Southeast 538 619 35,000  Level FlightAware ADS-B
Fri 03:02:10 AM 48.4410 -5.7510 112° Southeast 539 620 35,000  Level FlightAware ADS-B
Fri 03:02:47 AM 48.4050 -5.6260 113° Southeast 540 621 35,000  Level FlightAware ADS-B
Fri 03:03:23 AM 48.3680 -5.4990 114° Southeast 539 620 35,000  Level FlightAware ADS-B
Fri 03:03:54 AM 48.3390 -5.3960 113° Southeast 540 621 35,000  Level FlightAware ADS-B
Fri 03:04:31 AM 48.3020 -5.2690 114° Southeast 538 619 35,000  Level FlightAware ADS-B
Fri 03:05:07 AM 48.2660 -5.1430 113° Southeast 536 617 35,000  Level FlightAware ADS-B
Fri 03:05:39 AM 48.2327 -5.0288 113° Southeast 496 571 35,000  Level FlightAware UK
Fri 03:05:40 AM 48.2340 -5.0340 113° Southeast 535 616 35,000  Level FlightAware ADS-B
Fri 03:06:17 AM 48.1960 -4.9050 114° Southeast 536 617 35,000  Level FlightAware ADS-B
Fri 03:06:57 AM 48.1570 -4.7750 114° Southeast 540 621 35,000  Level FlightAware ADS-B
Fri 03:07:34 AM 48.1200 -4.6480 114° Southeast 543 625 35,000  Level FlightAware ADS-B
Fri 03:08:05 AM 48.0870 -4.5380 114° Southeast 547 629 35,000  Level FlightAware ADS-B
Fri 03:08:44 AM 48.0460 -4.4030 114° Southeast 550 633 35,000  Level FlightAware ADS-B
Fri 03:09:16 AM 48.0120 -4.2850 113° Southeast 554 638 35,000  Level FlightAware ADS-B
Fri 03:09:37 AM 47.9907 -4.2155 115° Southeast 556 640 35,000  Level FlightAware ADS-B (EGJJ / JER)
Fri 03:10:29 AM 47.9392 -4.0477 115° Southeast 557 641 35,000  Level FlightAware ADS-B (EGJJ / JER)
Fri 03:11:01 AM 47.9020 -3.9260 114° Southeast 555 639 35,000  Level FlightAware ADS-B
Fri 03:11:32 AM 47.8670 -3.8150 115° Southeast 554 638 35,000  Level FlightAware ADS-B
Fri 03:12:09 AM 47.8280 -3.6870 114° Southeast 549 632 35,000  Level FlightAware ADS-B
Fri 03:12:37 AM 47.8648 -3.8044 295° West 547 629 35,000  Level FlightAware ADS-B (EGJJ / JER)
Fri 03:13:16 AM 47.7550 -3.4600 115° Southeast 551 634 35,000  Level FlightAware ADS-B
Fri 03:13:37 AM 47.7308 -3.3905 117° Southeast 552 635 35,000  Level FlightAware ADS-B (LFBL / LIG)
Fri 03:14:07 AM 47.6934 -3.3037 123° Southeast 555 639 35,000  Level FlightAware ADS-B (LFBL / LIG)
Fri 03:14:59 AM 47.6148 -3.1284 124° Southeast 558 642 35,000  Level FlightAware ADS-B (LFBL / LIG)
Fri 03:15:34 AM 47.5646 -3.0177 124° Southeast 558 642 35,000  Level FlightAware ADS-B (LFBL / LIG)
Fri 03:16:04 AM 47.5218 -2.9233 124° Southeast 556 640 35,000  Level FlightAware ADS-B (LFBL / LIG)
Fri 03:16:36 AM 47.4754 -2.8227 124° Southeast 558 642 35,000  Level FlightAware ADS-B (LFBL / LIG)
Fri 03:17:14 AM 47.4230 -2.7128 125° Southeast 561 646 35,000  Level FlightAware ADS-B (LFBL / LIG)
Fri 03:17:46 AM 47.3755 -2.6087 124° Southeast 563 648 35,000  Level FlightAware ADS-B (LFBL / LIG)
Fri 03:18:16 AM 47.3345 -2.5236 125° Southeast 566 651 35,000  Level FlightAware ADS-B (LFBL / LIG)
Fri 03:18:58 AM 47.2652 -2.3748 124° Southeast 568 654 35,000  Level FlightAware ADS-B (LFBL / LIG)
Fri 03:19:37 AM 47.2060 -2.2510 125° Southeast 568 654 35,000  Level FlightAware ADS-B
Fri 03:19:56 AM 47.1786 -2.1945 126° Southeast 568 654 35,000  Level FlightAware ADS-B (LFBL / LIG)
Fri 03:20:53 AM 47.0919 -2.0113 125° Southeast 569 655 35,000  Level FlightAware ADS-B (LFBL / LIG)
Fri 03:21:23 AM 47.0451 -1.9166 126° Southeast 569 655 35,000  Level FlightAware ADS-B (LFBL / LIG)
Fri 03:21:54 AM 46.9985 -1.8192 125° Southeast 568 654 35,000  Level FlightAware ADS-B (LFBL / LIG)
Fri 03:22:24 AM 46.9531 -1.7251 125° Southeast 568 654 35,000  Level FlightAware ADS-B (LFBL / LIG)
Fri 03:22:54 AM 46.9113 -1.6376 125° Southeast 569 655 35,000  Level FlightAware ADS-B (LFBL / LIG)
Fri 03:23:25 AM 46.8606 -1.5344 126° Southeast 569 655 35,000  Level FlightAware ADS-B (LFBL / LIG)
Fri 03:23:55 AM 46.8151 -1.4404 125° Southeast 569 655 35,000  Level FlightAware ADS-B (LFBL / LIG)
Fri 03:24:46 AM 46.7482 -1.3065 126° Southeast 569 655 35,000  Level FlightAware ADS-B (LFBL / LIG)
Fri 03:25:26 AM 46.6750 -1.1570 125° Southeast 569 655 35,000  Level FlightAware ADS-B
Fri 03:25:49 AM 46.6396 -1.0856 126° Southeast 570 656 35,000  Level FlightAware ADS-B (LFBL / LIG)
Fri 03:26:22 AM 46.5886 -0.9833 126° Southeast 570 656 35,000  Level FlightAware ADS-B (LFBL / LIG)
Fri 03:27:06 AM 46.5245 -0.8528 125° Southeast 571 657 35,000  Level FlightAware ADS-B (LFBL / LIG)
Fri 03:27:45 AM 46.4670 -0.7200 122° Southeast 568 654 35,000  Level FlightAware ADS-B
Fri 03:28:07 AM 46.4427 -0.6442 115° Southeast 566 651 35,000  Level FlightAware ADS-B (LFBL / LIG)
Fri 03:28:38 AM 46.4207 -0.5592 111° Southeast 565 650 35,000  Level FlightAware ADS-B (LFBL / LIG)
Fri 03:29:13 AM 46.4162 -0.5414 110° East 565 650 35,000  Level FlightAware ADS-B (LFBL / LIG)
Fri 03:29:58 AM 46.3446 -0.2507 110° East 563 648 35,000  Level FlightAware ADS-B (LFBL / LIG)
Fri 03:30:29 AM 46.3175 -0.1411 110° East 562 647 35,000  Level FlightAware ADS-B (LFBL / LIG)
Fri 03:31:08 AM 46.2866 -0.0176 110° East 562 647 35,000  Level FlightAware ADS-B (LFBL / LIG)
Fri 03:31:40 AM 46.2548 0.1092 110° East 561 646 35,000  Level FlightAware ADS-B (LFBL / LIG)
Fri 03:32:14 AM 46.2242 0.2284 110° East 560 644 35,000  Level FlightAware ADS-B (LFBL / LIG)
Fri 03:32:45 AM 46.1978 0.3377 109° East 556 640 35,000  Level FlightAware ADS-B (LFBL / LIG)
Fri 03:33:19 AM 46.1787 0.4636 102° East 552 635 35,000  Level FlightAware ADS-B (LFBL / LIG)
Fri 03:33:49 AM 46.1700 0.5694 97° East 551 634 35,000  Level FlightAware ADS-B (LFBL / LIG)
Fri 03:34:19 AM 46.1623 0.6828 96° East 551 634 35,000  Level FlightAware ADS-B (LFBL / LIG)
Fri 03:34:50 AM 46.1547 0.7919 96° East 550 633 35,000  Level FlightAware ADS-B (LFBL / LIG)
Fri 03:35:21 AM 46.1481 0.8865 96° East 550 633 35,000  Level FlightAware ADS-B (LFBL / LIG)
Fri 03:35:57 AM 46.1380 1.0320 96° East 550 633 35,000  Level FlightAware ADS-B
Fri 03:36:12 AM 46.1339 1.0905 96° East 551 634 35,000  Level FlightAware ADS-B (LFBL / LIG)
Fri 03:36:51 AM 46.1252 1.2106 96° East 551 634 35,000  Level FlightAware ADS-B (LFBL / LIG)
Fri 03:37:22 AM 46.1152 1.3456 96° East 550 633 35,000  Level FlightAware ADS-B (LFBL / LIG)
Fri 03:38:13 AM 46.1015 1.5342 96° East 549 632 35,000  Level FlightAware ADS-B (LFBL / LIG)
Fri 03:38:52 AM 46.0910 1.6720 96° East 549 632 35,000  Level FlightAware ADS-B
Fri 03:39:28 AM 46.0811 1.8027 96° East 548 631 35,000  Level FlightAware ADS-B (LFBL / LIG)
Fri 03:40:03 AM 46.0720 1.9290 96° East 547 629 35,000  Level FlightAware ADS-B
Fri 03:40:22 AM 46.0663 1.9980 97° East 546 628 35,000  Level FlightAware ADS-B (LFBL / LIG)
Fri 03:41:04 AM 46.0550 2.1423 96° East 547 629 35,000  Level FlightAware ADS-B (LFBL / LIG)
Fri 03:41:41 AM 46.0340 2.2731 103° East 547 629 35,000  Level FlightAware ADS-B (LFBL / LIG)
Fri 03:42:24 AM 46.0052 2.4308 105° East 545 627 35,000  Level FlightAware ADS-B (LFBL / LIG)
Fri 03:43:01 AM 45.9830 2.5530 105° East 545 627 35,000  Level FlightAware ADS-B
Fri 03:43:35 AM 45.9599 2.6789 105° East 544 626 35,000  Level FlightAware ADS-B (LFBL / LIG)
Fri 03:44:07 AM 45.9388 2.7902 105° East 543 625 35,000  Level FlightAware ADS-B (LFBL / LIG)
Fri 03:44:40 AM 45.9160 2.8970 107° East 551 634 35,000  Level FlightAware ADS-B
Fri 03:44:47 AM 45.9053 2.9260 118° Southeast 550 633 35,000  Level FlightAware ADS-B (LFBL / LIG)
Fri 03:45:25 AM 45.8462 3.0391 127° Southeast 553 636 35,000  Level FlightAware ADS-B (LFBL / LIG)
Fri 03:46:07 AM 45.7810 3.1560 129° Southeast 551 634 35,000  Level FlightAware ADS-B
Fri 03:46:31 AM 45.7492 3.2134 128° Southeast 553 636 35,000  Level FlightAware ADS-B (LFBL / LIG)
Fri 03:47:01 AM 45.6977 3.3056 129° Southeast 552 635 35,000  Level FlightAware ADS-B (LFBL / LIG)
Fri 03:47:51 AM 45.6160 3.4550 128° Southeast 553 636 35,000  Level FlightAware ADS-B
Fri 03:48:24 AM 45.5670 3.5480 127° Southeast 552 635 35,000  Level FlightAware ADS-B
Fri 03:48:44 AM 45.5334 3.6084 128° Southeast 553 636 35,000  Level FlightAware ADS-B (LFBL / LIG)
Fri 03:49:36 AM 45.4580 3.7500 127° Southeast 554 638 35,000  Level FlightAware ADS-B
Fri 03:50:13 AM 45.3980 3.8590 128° Southeast 555 639 35,000  Level FlightAware ADS-B
Fri 03:50:49 AM 45.3390 3.9660 128° Southeast 555 639 35,000  Level FlightAware ADS-B
Fri 03:51:21 AM 45.2910 4.0610 126° Southeast 555 639 35,000  Level FlightAware ADS-B
Fri 03:51:57 AM 45.2370 4.1640 127° Southeast 555 639 35,000  Level FlightAware ADS-B
Fri 03:52:32 AM 45.1850 4.2670 126° Southeast 555 639 35,000  Level FlightAware ADS-B
Fri 03:53:09 AM 45.1260 4.3810 126° Southeast 557 641 35,000  Level FlightAware ADS-B
Fri 03:53:41 AM 45.0780 4.4750 126° Southeast 557 641 35,000  Level FlightAware ADS-B
Fri 03:54:19 AM 45.0200 4.5830 127° Southeast 556 640 35,000  Level FlightAware ADS-B
Fri 03:54:51 AM 44.9720 4.6760 126° Southeast 556 640 35,000  Level FlightAware ADS-B
Fri 03:55:28 AM 44.9140 4.7830 127° Southeast 555 639 35,000  Level FlightAware ADS-B
Fri 03:56:03 AM 44.8610 4.8850 126° Southeast 554 638 35,000  Level FlightAware ADS-B
Fri 03:56:39 AM 44.8060 4.9880 127° Southeast 554 638 35,000  Level FlightAware ADS-B
Fri 03:57:11 AM 44.7560 5.0850 126° Southeast 554 638 35,000  Level FlightAware ADS-B
Fri 03:57:48 AM 44.7040 5.1960 123° Southeast 553 636 35,000  Level FlightAware ADS-B
Fri 03:58:23 AM 44.6550 5.3010 123° Southeast 553 636 35,000  Level FlightAware ADS-B
Fri 03:58:59 AM 44.6060 5.4060 123° Southeast 551 634 35,000  Level FlightAware ADS-B
Fri 03:59:32 AM 44.5580 5.5070 124° Southeast 550 633 35,000  Level FlightAware ADS-B
Fri 04:00:06 AM 44.5110 5.6080 123° Southeast 548 631 35,000  Level FlightAware ADS-B
Fri 04:00:44 AM 44.4590 5.7210 123° Southeast 547 629 35,000  Level FlightAware ADS-B
Fri 04:01:18 AM 44.4110 5.8250 123° Southeast 548 631 35,000  Level FlightAware ADS-B
Fri 04:01:51 AM 44.3670 5.9170 124° Southeast 547 629 35,000  Level FlightAware ADS-B
Fri 04:02:26 AM 44.3170 6.0230 123° Southeast 548 631 35,000  Level FlightAware ADS-B
Fri 04:03:03 AM 44.2650 6.1320 124° Southeast 548 631 35,000  Level FlightAware ADS-B
Fri 04:03:41 AM 44.2110 6.2430 124° Southeast 549 632 35,000  Level FlightAware ADS-B
Fri 04:04:14 AM 44.1650 6.3400 123° Southeast 548 631 35,000  Level FlightAware ADS-B
Fri 04:04:48 AM 44.1170 6.4400 124° Southeast 549 632 35,000  Level FlightAware ADS-B
Fri 04:05:21 AM 44.0720 6.5340 124° Southeast 549 632 35,000  Level FlightAware ADS-B
Fri 04:05:58 AM 44.0180 6.6450 124° Southeast 551 634 35,000  Level FlightAware ADS-B
Fri 04:06:34 AM 43.9680 6.7450 125° Southeast 553 636 35,000  Level FlightAware ADS-B
Fri 04:07:05 AM 43.9220 6.8420 123° Southeast 553 636 35,000  Level FlightAware ADS-B
Fri 04:07:42 AM 43.8690 6.9470 125° Southeast 553 636 35,000  Level FlightAware ADS-B
Fri 04:08:17 AM 43.8180 7.0520 124° Southeast 552 635 35,000  Level FlightAware ADS-B
Fri 04:08:54 AM 43.7640 7.1600 125° Southeast 552 635 35,000  Level FlightAware ADS-B
Fri 04:09:27 AM 43.7180 7.2530 124° Southeast 552 635 35,000  Level FlightAware ADS-B
Fri 04:10:01 AM 43.6670 7.3550 125° Southeast 553 636 35,000  Level FlightAware ADS-B
Fri 04:10:38 AM 43.6130 7.4660 124° Southeast 555 639 35,000  Level FlightAware ADS-B
Fri 04:11:15 AM 43.5600 7.5710 125° Southeast 557 641 35,000  Level FlightAware ADS-B
Fri 04:12:03 AM 43.4990 7.6910 125° Southeast 557 641 35,000  Level FlightAware ADS-B
Fri 04:12:35 AM 43.4420 7.8040 125° Southeast 556 640 35,000  Level FlightAware ADS-B
Fri 04:13:14 AM 43.3850 7.9170 125° Southeast 555 639 35,000  Level FlightAware ADS-B
Fri 04:13:46 AM 43.3380 8.0100 125° Southeast 555 639 35,000  Level FlightAware ADS-B
Fri 04:14:20 AM 43.2870 8.1100 125° Southeast 554 638 35,000  Level FlightAware ADS-B
Fri 04:14:58 AM 43.2320 8.2170 125° Southeast 553 636 35,000  Level FlightAware ADS-B
Fri 04:15:33 AM 43.1820 8.3170 124° Southeast 553 636 35,000  Level FlightAware ADS-B
Fri 04:16:05 AM 43.1330 8.4090 126° Southeast 554 638 35,000  Level FlightAware ADS-B
Fri 04:16:40 AM 43.0840 8.5030 125° Southeast 555 639 35,000  Level FlightAware ADS-B
Fri 04:17:19 AM 43.0270 8.6150 125° Southeast 556 640 35,000  Level FlightAware ADS-B
Fri 04:17:48 AM 42.9810 8.7010 126° Southeast 556 640 35,000  Level FlightAware ADS-B
Fri 04:18:27 AM 42.9240 8.8120 125° Southeast 556 640 35,000 240 Level FlightAware ADS-B
Fri 04:19:03 AM 42.8690 8.9150 126° Southeast 555 639 35,300 1,075 Climbing FlightAware ADS-B
Fri 04:19:34 AM 42.8240 9.0030 125° Southeast 549 632 36,200 1,477 Climbing FlightAware ADS-B
Fri 04:20:08 AM 42.7740 9.0980 126° Southeast 548 631 36,900 667 Climbing FlightAware ADS-B
Fri 04:20:46 AM 42.7160 9.2070 126° Southeast 547 629 37,000 79 Climbing FlightAware ADS-B
Fri 04:21:24 AM 42.6620 9.3100 125° Southeast 543 625 37,000  Level FlightAware ADS-B
Fri 04:21:56 AM 42.6130 9.4010 126° Southeast 538 619 37,000  Level FlightAware ADS-B
Fri 04:22:33 AM 42.5650 9.5050 122° Southeast 546 628 37,000  Level FlightAware ADS-B
Fri 04:23:09 AM 42.5260 9.6240 114° Southeast 552 635 37,000  Level FlightAware ADS-B
Fri 04:23:40 AM 42.5010 9.7180 110° East 551 634 37,000  Level FlightAware ADS-B
Fri 04:24:16 AM 42.4700 9.8350 110° East 552 635 37,000  Level FlightAware ADS-B
Fri 04:24:54 AM 42.4370 9.9620 109° East 556 640 37,000  Level FlightAware ADS-B
Fri 04:25:26 AM 42.4090 10.0670 110° East 558 642 37,000  Level FlightAware ADS-B
Fri 04:26:02 AM 42.3770 10.1860 110° East 558 642 37,000  Level FlightAware ADS-B
Fri 04:26:38 AM 42.3460 10.3040 110° East 561 646 37,000  Level FlightAware ADS-B
Fri 04:27:10 AM 42.3170 10.4090 110° East 562 647 37,000  Level FlightAware ADS-B
Fri 04:27:46 AM 42.2860 10.5250 110° East 565 650 37,000  Level FlightAware ADS-B
Fri 04:28:21 AM 42.2540 10.6450 110° East 568 654 37,000  Level FlightAware ADS-B
Fri 04:28:56 AM 42.2230 10.7610 110° East 567 652 37,000  Level FlightAware ADS-B
Fri 04:29:33 AM 42.1890 10.8830 111° Southeast 562 647 37,000  Level FlightAware ADS-B
Fri 04:30:08 AM 42.1580 10.9980 110° East 559 643 37,000  Level FlightAware ADS-B
Fri 04:30:48 AM 42.1210 11.1280 111° Southeast 558 642 37,000  Level FlightAware ADS-B
Fri 04:31:26 AM 42.0880 11.2510 110° East 556 640 37,000  Level FlightAware ADS-B
Fri 04:31:58 AM 42.0540 11.3520 114° Southeast 548 631 37,000  Level FlightAware ADS-B
Fri 04:32:35 AM 42.0000 11.4520 126° Southeast 531 611 37,000  Level FlightAware ADS-B
Fri 04:33:10 AM 41.9410 11.5360 133° Southeast 529 609 37,000  Level FlightAware ADS-B
Fri 04:33:43 AM 41.8860 11.6140 133° Southeast 526 605 37,000  Level FlightAware ADS-B
Fri 04:34:18 AM 41.8280 11.6940 134° Southeast 522 601 37,000  Level FlightAware ADS-B
Fri 04:34:54 AM 41.7670 11.7800 134° Southeast 520 598 37,000  Level FlightAware ADS-B
Fri 04:35:26 AM 41.7120 11.8570 134° Southeast 520 598 37,000  Level FlightAware ADS-B
Fri 04:36:03 AM 41.6530 11.9410 133° Southeast 519 597 37,000  Level FlightAware ADS-B
Fri 04:36:39 AM 41.5930 12.0240 134° Southeast 519 597 37,000  Level FlightAware ADS-B
Fri 04:37:14 AM 41.5340 12.1050 134° Southeast 522 601 37,000  Level FlightAware ADS-B
Fri 04:37:50 AM 41.4720 12.1920 134° Southeast 524 603 37,000  Level FlightAware ADS-B
Fri 04:38:22 AM 41.4190 12.2660 134° Southeast 525 604 37,000  Level FlightAware ADS-B
Fri 04:38:58 AM 41.3590 12.3480 134° Southeast 526 605 37,000  Level FlightAware ADS-B
Fri 04:39:34 AM 41.2990 12.4310 134° Southeast 524 603 37,000  Level FlightAware ADS-B
Fri 04:40:10 AM 41.2370 12.5150 134° Southeast 522 601 37,000  Level FlightAware ADS-B
Fri 04:40:44 AM 41.1810 12.5900 135° Southeast 519 597 37,000  Level FlightAware ADS-B
Fri 04:41:20 AM 41.1210 12.6720 134° Southeast 516 594 37,000  Level FlightAware ADS-B
Fri 04:41:50 AM 41.0710 12.7420 133° Southeast 514 592 37,000  Level FlightAware ADS-B
Fri 04:42:30 AM 41.0030 12.8340 134° Southeast 512 589 37,000  Level FlightAware ADS-B
Fri 04:43:05 AM 40.9480 12.9090 134° Southeast 512 589 37,000  Level FlightAware ADS-B
Fri 04:43:46 AM 40.8860 13.0140 128° Southeast 528 608 37,000  Level FlightAware ADS-B
Fri 04:44:20 AM 40.8460 13.1030 121° Southeast 527 606 37,000  Level FlightAware ADS-B
Fri 04:44:58 AM 40.7990 13.2150 119° Southeast 523 602 37,000  Level FlightAware ADS-B
Fri 04:45:31 AM 40.7620 13.3010 120° Southeast 521 600 37,000  Level FlightAware ADS-B
Fri 04:46:04 AM 40.7210 13.3940 120° Southeast 517 595 37,000  Level FlightAware ADS-B
Fri 04:46:42 AM 40.6740 13.5000 120° Southeast 514 592 37,000  Level FlightAware ADS-B
Fri 04:47:19 AM 40.6310 13.5970 120° Southeast 514 592 37,000  Level FlightAware ADS-B
Fri 04:47:50 AM 40.5930 13.6830 120° Southeast 513 590 37,000  Level FlightAware ADS-B
Fri 04:48:26 AM 40.5500 13.7800 120° Southeast 511 588 37,000  Level FlightAware ADS-B
Fri 04:49:02 AM 40.5070 13.8760 120° Southeast 509 586 37,000  Level FlightAware ADS-B
Fri 04:49:36 AM 40.4660 13.9660 121° Southeast 507 583 37,000  Level FlightAware ADS-B
Fri 04:50:18 AM 40.4170 14.0750 121° Southeast 505 581 37,000  Level FlightAware ADS-B
Fri 04:50:52 AM 40.3750 14.1700 120° Southeast 503 579 37,000  Level FlightAware ADS-B
Fri 04:51:30 AM 40.3310 14.2670 121° Southeast 505 581 37,000  Level FlightAware ADS-B
Fri 04:52:02 AM 40.2920 14.3510 121° Southeast 506 582 37,000  Level FlightAware ADS-B
Fri 04:52:38 AM 40.2490 14.4460 121° Southeast 506 582 37,000  Level FlightAware ADS-B
Fri 04:53:14 AM 40.2060 14.5410 121° Southeast 507 583 37,000  Level FlightAware ADS-B
Fri 04:53:50 AM 40.1630 14.6360 121° Southeast 512 589 37,000  Level FlightAware ADS-B
Fri 04:54:22 AM 40.1230 14.7230 121° Southeast 514 592 37,000  Level FlightAware ADS-B
Fri 04:54:58 AM 40.0800 14.8170 121° Southeast 517 595 37,000  Level FlightAware ADS-B
Fri 04:55:34 AM 40.0340 14.9160 121° Southeast 518 596 37,000  Level FlightAware ADS-B
Fri 04:56:10 AM 39.9910 15.0100 121° Southeast 518 596 37,000  Level FlightAware ADS-B
Fri 04:56:41 AM 39.9520 15.0930 121° Southeast 519 597 37,000  Level FlightAware ADS-B
Fri 04:57:17 AM 39.9060 15.1890 122° Southeast 520 598 37,000  Level FlightAware ADS-B
Fri 04:57:53 AM 39.8610 15.2880 121° Southeast 522 601 37,000  Level FlightAware ADS-B
Fri 04:58:30 AM 39.8170 15.3820 121° Southeast 523 602 37,000  Level FlightAware ADS-B
Fri 04:59:01 AM 39.7770 15.4680 121° Southeast 524 603 37,000  Level FlightAware ADS-B
Fri 04:59:37 AM 39.7300 15.5650 122° Southeast 525 604 37,000  Level FlightAware ADS-B
Fri 05:00:13 AM 39.6850 15.6610 121° Southeast 525 604 37,000  Level FlightAware ADS-B
Fri 05:00:47 AM 39.6410 15.7530 122° Southeast 525 604 37,000  Level FlightAware ADS-B
Fri 05:01:23 AM 39.5990 15.8550 118° Southeast 530 610 37,000  Level FlightAware ADS-B
Fri 05:01:55 AM 39.5660 15.9450 115° Southeast 529 609 37,000  Level FlightAware ADS-B
Fri 05:02:33 AM 39.5290 16.0550 114° Southeast 528 608 37,000  Level FlightAware ADS-B
Fri 05:03:08 AM 39.4960 16.1570 113° Southeast 527 606 37,000  Level FlightAware ADS-B
Fri 05:03:41 AM 39.4640 16.2520 114° Southeast 528 608 37,000  Level FlightAware ADS-B
Fri 05:04:17 AM 39.4300 16.3570 113° Southeast 528 608 37,000  Level FlightAware ADS-B
Fri 05:04:53 AM 39.3960 16.4590 113° Southeast 531 611 37,000  Level FlightAware ADS-B
Fri 05:05:25 AM 39.3640 16.5580 113° Southeast 530 610 37,000  Level FlightAware ADS-B
Fri 05:06:01 AM 39.3300 16.6590 113° Southeast 528 608 37,000  Level FlightAware ADS-B
Fri 05:06:37 AM 39.2940 16.7660 113° Southeast 525 604 37,000  Level FlightAware ADS-B
Fri 05:07:11 AM 39.2630 16.8610 113° Southeast 522 601 37,000  Level FlightAware ADS-B
Fri 05:07:45 AM 39.2300 16.9580 114° Southeast 519 597 37,000  Level FlightAware ADS-B
Fri 05:08:19 AM 39.1970 17.0570 113° Southeast 517 595 37,000  Level FlightAware ADS-B
Fri 05:08:57 AM 39.1610 17.1610 114° Southeast 516 594 37,000  Level FlightAware ADS-B
Fri 05:09:35 AM 39.1240 17.2680 114° Southeast 519 597 37,000  Level FlightAware ADS-B
Fri 05:10:07 AM 39.0950 17.3560 113° Southeast 519 597 37,000  Level FlightAware ADS-B
Fri 05:10:43 AM 39.0590 17.4600 114° Southeast 519 597 37,000  Level FlightAware ADS-B
Fri 05:11:25 AM 39.0280 17.5540 113° Southeast 522 601 37,000  Level FlightAware ADS-B
Fri 05:12:01 AM 38.9830 17.6840 114° Southeast 524 603 37,000  Level FlightAware ADS-B
Fri 05:12:37 AM 38.9480 17.7850 114° Southeast 528 608 37,000  Level FlightAware ADS-B
Fri 05:13:01 AM 38.9230 17.8540 115° Southeast 530 610 37,000  Level FlightAware ADS-B
Fri 05:13:37 AM 38.8880 17.9570 114° Southeast 531 611 37,000  Level FlightAware ADS-B
Fri 05:14:13 AM 38.8510 18.0640 114° Southeast 534 615 37,000  Level FlightAware ADS-B
Fri 05:14:49 AM 38.8140 18.1680 115° Southeast 535 616 37,000  Level FlightAware ADS-B
Fri 05:15:22 AM 38.7820 18.2580 114° Southeast 537 618 37,000  Level FlightAware ADS-B
Fri 05:15:59 AM 38.7440 18.3680 114° Southeast 537 618 37,000  Level FlightAware ADS-B
Fri 05:16:35 AM 38.7080 18.4690 115° Southeast 535 616 37,000  Level FlightAware ADS-B
Fri 05:17:07 AM 38.6750 18.5640 114° Southeast 533 613 37,000  Level FlightAware ADS-B
Fri 05:17:43 AM 38.6410 18.6690 112° Southeast 533 613 37,000  Level FlightAware ADS-B
Fri 05:18:19 AM 38.6090 18.7720 112° Southeast 533 613 37,000  Level FlightAware ADS-B
Fri 05:19:05 AM 38.5760 18.8830 111° Southeast 534 615 37,000  Level FlightAware ADS-B
Fri 05:20:02 AM 38.5330 19.0280 111° Southeast 534 615 37,000  Level FlightAware ADS-B
Fri 05:20:38 AM 38.5070 19.1190 110° East 534 615 37,000  Level FlightAware ADS-B
Fri 05:21:08 AM 38.4730 19.2320 111° Southeast 534 615 37,000  Level FlightAware ADS-B
Fri 05:21:45 AM 38.4360 19.3560 111° Southeast 536 617 37,000  Level FlightAware ADS-B
Fri 05:22:18 AM 38.4130 19.4330 111° Southeast 536 617 37,000  Level FlightAware ADS-B
Fri 05:22:54 AM 38.3790 19.5450 111° Southeast 536 617 37,000  Level FlightAware ADS-B
Fri 05:23:34 AM 38.3410 19.6720 111° Southeast 536 617 37,000  Level FlightAware ADS-B
Fri 05:24:11 AM 38.3100 19.7720 112° Southeast 537 618 37,000  Level FlightAware ADS-B
Fri 05:24:51 AM 38.2750 19.8900 111° Southeast 538 619 37,000  Level FlightAware ADS-B
Fri 05:25:32 AM 38.2340 20.0220 112° Southeast 538 619 37,000  Level FlightAware ADS-B
Fri 05:26:08 AM 38.1940 20.1520 111° Southeast 537 618 37,000  Level FlightAware ADS-B
Fri 05:26:39 AM 38.1640 20.2480 112° Southeast 537 618 37,000  Level FlightAware ADS-B
Fri 05:27:17 AM 38.1340 20.3420 112° Southeast 537 618 37,000  Level FlightAware ADS-B
Fri 05:27:51 AM 38.0970 20.4590 112° Southeast 536 617 37,000  Level FlightAware ADS-B
Fri 05:28:28 AM 38.0650 20.5650 111° Southeast 535 616 37,000  Level FlightAware ADS-B
Fri 05:29:01 AM 38.0380 20.6500 112° Southeast 535 616 37,000  Level FlightAware ADS-B
Fri 05:29:42 AM 37.9960 20.7830 112° Southeast 536 617 37,000  Level FlightAware ADS-B
Fri 05:30:17 AM 37.9640 20.8820 112° Southeast 534 615 37,000  Level FlightAware ADS-B
Fri 05:30:56 AM 37.9280 20.9950 112° Southeast 534 615 37,000  Level FlightAware ADS-B
Fri 05:31:28 AM 37.8980 21.0910 112° Southeast 535 616 37,000  Level FlightAware ADS-B
Fri 05:32:04 AM 37.8640 21.1950 112° Southeast 535 616 37,000  Level FlightAware ADS-B
Fri 05:32:41 AM 37.8300 21.3020 112° Southeast 536 617 37,000  Level FlightAware ADS-B
Fri 05:33:12 AM 37.8010 21.3920 112° Southeast 536 617 37,000  Level FlightAware ADS-B
Fri 05:33:48 AM 37.7670 21.4970 112° Southeast 537 618 37,000  Level FlightAware ADS-B
Fri 05:34:21 AM 37.7370 21.5900 112° Southeast 538 619 37,000  Level FlightAware ADS-B
Fri 05:35:00 AM 37.7000 21.7060 112° Southeast 537 618 37,000  Level FlightAware ADS-B
Fri 05:35:32 AM 37.6680 21.8010 113° Southeast 537 618 37,000  Level FlightAware ADS-B
Fri 05:36:10 AM 37.6350 21.9030 112° Southeast 537 618 37,000  Level FlightAware ADS-B
Fri 05:36:42 AM 37.6020 22.0010 113° Southeast 536 617 37,000  Level FlightAware ADS-B
Fri 05:37:15 AM 37.5720 22.0930 112° Southeast 537 618 37,000  Level FlightAware ADS-B
Fri 05:37:52 AM 37.5360 22.2000 113° Southeast 537 618 37,000  Level FlightAware ADS-B
Fri 05:38:27 AM 37.5010 22.3040 113° Southeast 537 618 37,000  Level FlightAware ADS-B
Fri 05:39:02 AM 37.4680 22.4050 112° Southeast 536 617 37,000  Level FlightAware ADS-B
Fri 05:39:39 AM 37.4320 22.5110 113° Southeast 537 618 37,000  Level FlightAware ADS-B
Fri 05:40:13 AM 37.3980 22.6120 113° Southeast 536 617 37,000  Level FlightAware ADS-B
Fri 05:40:48 AM 37.3650 22.7090 113° Southeast 535 616 37,000  Level FlightAware ADS-B
Fri 05:41:25 AM 37.3300 22.8120 113° Southeast 535 616 37,000  Level FlightAware ADS-B
Fri 05:41:59 AM 37.2960 22.9150 113° Southeast 535 616 37,000  Level FlightAware ADS-B
Fri 05:42:34 AM 37.2630 23.0120 113° Southeast 536 617 37,000  Level FlightAware ADS-B
Fri 05:43:10 AM 37.2270 23.1170 113° Southeast 535 616 37,000  Level FlightAware ADS-B
Fri 05:43:43 AM 37.1940 23.2120 114° Southeast 536 617 37,000  Level FlightAware ADS-B
Fri 05:44:18 AM 37.1600 23.3110 113° Southeast 535 616 37,000  Level FlightAware ADS-B
Fri 05:44:53 AM 37.1260 23.4080 114° Southeast 534 615 37,000  Level FlightAware ADS-B
Fri 05:45:29 AM 37.0920 23.5070 113° Southeast 533 613 37,000  Level FlightAware ADS-B
Fri 05:46:04 AM 37.0560 23.6090 114° Southeast 532 612 37,000  Level FlightAware ADS-B
Fri 05:46:41 AM 37.0200 23.7130 113° Southeast 531 611 37,000  Level FlightAware ADS-B
Fri 05:47:13 AM 36.9880 23.8060 113° Southeast 531 611 37,000  Level FlightAware ADS-B
Fri 05:47:49 AM 36.9530 23.9040 114° Southeast 531 611 37,000  Level FlightAware ADS-B
Fri 05:48:25 AM 36.9160 24.0080 114° Southeast 531 611 37,000  Level FlightAware ADS-B
Fri 05:48:57 AM 36.8850 24.0950 114° Southeast 531 611 37,000  Level FlightAware ADS-B
Fri 05:49:36 AM 36.8460 24.2040 114° Southeast 531 611 37,000  Level FlightAware ADS-B
Fri 05:50:07 AM 36.8170 24.2880 113° Southeast 531 611 37,000  Level FlightAware ADS-B
Fri 05:50:43 AM 36.7800 24.3920 114° Southeast 530 610 37,000  Level FlightAware ADS-B
Fri 05:51:24 AM 36.7400 24.5040 114° Southeast 531 611 37,000  Level FlightAware ADS-B
Fri 05:51:56 AM 36.7060 24.5960 115° Southeast 531 611 37,000  Level FlightAware ADS-B
Fri 05:52:28 AM 36.6740 24.6850 114° Southeast 530 610 37,000  Level FlightAware ADS-B
Fri 05:53:04 AM 36.6400 24.7790 114° Southeast 529 609 37,000  Level FlightAware ADS-B
Fri 05:53:40 AM 36.6030 24.8820 114° Southeast 529 609 37,000  Level FlightAware ADS-B
Fri 05:54:13 AM 36.5690 24.9760 114° Southeast 529 609 37,000  Level FlightAware ADS-B
Fri 05:54:49 AM 36.5320 25.0760 115° Southeast 530 610 37,000  Level FlightAware ADS-B
Fri 05:55:26 AM 36.4950 25.1780 114° Southeast 529 609 37,000  Level FlightAware ADS-B
Fri 05:55:56 AM 36.4650 25.2590 115° Southeast 529 609 37,000  Level FlightAware ADS-B
Fri 05:56:34 AM 36.4250 25.3660 115° Southeast 529 609 37,000  Level FlightAware ADS-B
Fri 05:57:10 AM 36.3890 25.4630 115° Southeast 529 609 37,000  Level FlightAware ADS-B
Fri 05:57:42 AM 36.3560 25.5510 115° Southeast 530 610 37,000  Level FlightAware ADS-B
Fri 05:58:19 AM 36.3200 25.6510 114° Southeast 530 610 37,000  Level FlightAware ADS-B
Fri 05:58:55 AM 36.2820 25.7520 115° Southeast 530 610 37,000  Level FlightAware ADS-B
Fri 05:59:30 AM 36.2450 25.8490 115° Southeast 530 610 37,000  Level FlightAware ADS-B
Fri 06:00:11 AM 36.2020 25.9640 115° Southeast 530 610 37,000  Level FlightAware ADS-B
Fri 06:00:47 AM 36.1650 26.0630 115° Southeast 530 610 37,000  Level FlightAware ADS-B
Fri 06:01:23 AM 36.1290 26.1570 115° Southeast 530 610 37,000  Level FlightAware ADS-B
Fri 06:01:53 AM 36.0950 26.2470 115° Southeast 531 611 37,000  Level FlightAware ADS-B
Fri 06:02:31 AM 36.0570 26.3490 115° Southeast 530 610 37,000  Level FlightAware ADS-B
Fri 06:03:07 AM 36.0180 26.4480 116° Southeast 530 610 37,000  Level FlightAware ADS-B
Fri 06:03:42 AM 35.9820 26.5440 115° Southeast 530 610 37,000  Level FlightAware ADS-B
Fri 06:04:15 AM 35.9470 26.6360 115° Southeast 530 610 37,000  Level FlightAware ADS-B
Fri 06:04:51 AM 35.9090 26.7350 115° Southeast 531 611 37,000  Level FlightAware ADS-B
Fri 06:05:26 AM 35.8730 26.8280 116° Southeast 531 611 37,000  Level FlightAware ADS-B
Fri 06:06:00 AM 35.8420 26.9070 116° Southeast 531 611 37,000  Level FlightAware ADS-B
Fri 06:06:36 AM 35.8110 26.9910 114° Southeast 531 611 37,000  Level FlightAware ADS-B
Fri 06:07:10 AM 35.7610 27.1150 116° Southeast 534 615 37,000  Level FlightAware ADS-B
Fri 06:07:48 AM 35.7200 27.2190 116° Southeast 533 613 37,000  Level FlightAware ADS-B
Fri 06:08:20 AM 35.6860 27.3060 116° Southeast 533 613 37,000  Level FlightAware ADS-B
Fri 06:08:52 AM 35.6530 27.3910 116° Southeast 534 615 37,000  Level FlightAware ADS-B
Fri 06:09:30 AM 35.6120 27.4950 116° Southeast 534 615 37,000  Level FlightAware ADS-B
Fri 06:10:06 AM 35.5730 27.5930 116° Southeast 533 613 37,000  Level FlightAware ADS-B
Fri 06:10:40 AM 35.5350 27.6880 116° Southeast 533 613 37,000  Level FlightAware ADS-B
Fri 06:11:04 AM 35.5100 27.7500 116° Southeast 533 613 37,000  Level FlightAware ADS-B
Fri 06:11:58 AM 35.4510 27.8980 116° Southeast 534 615 37,000  Level FlightAware ADS-B
Fri 06:12:32 AM 35.4150 27.9900 116° Southeast 534 615 37,000  Level FlightAware ADS-B
Fri 06:13:10 AM 35.3730 28.0930 117° Southeast 534 615 37,000  Level FlightAware ADS-B
Fri 06:13:42 AM 35.3380 28.1800 116° Southeast 534 615 37,000  Level FlightAware ADS-B
Fri 06:14:28 AM 35.2940 28.2870 117° Southeast 533 613 37,000  Level FlightAware ADS-B
Fri 06:14:58 AM 35.2550 28.3860 116° Southeast 534 615 37,000  Level FlightAware ADS-B
Fri 06:15:32 AM 35.2180 28.4780 116° Southeast 534 615 37,000  Level FlightAware ADS-B
Fri 06:16:08 AM 35.1770 28.5750 117° Southeast 533 613 37,000  Level FlightAware ADS-B
Fri 06:16:44 AM 35.1390 28.6690 116° Southeast 534 615 37,000  Level FlightAware ADS-B
Fri 06:17:18 AM 35.1010 28.7610 117° Southeast 534 615 37,000  Level FlightAware ADS-B
Fri 06:17:54 AM 35.0610 28.8610 116° Southeast 534 615 37,000  Level FlightAware ADS-B
Fri 06:18:31 AM 35.0200 28.9580 117° Southeast 535 616 37,000  Level FlightAware ADS-B
Fri 06:19:07 AM 34.9800 29.0550 117° Southeast 536 617 37,000  Level FlightAware ADS-B
Fri 06:19:47 AM 34.9350 29.1630 117° Southeast 536 617 37,000  Level FlightAware ADS-B
Fri 06:20:23 AM 34.8940 29.2620 117° Southeast 536 617 37,000  Level FlightAware ADS-B
Fri 06:20:55 AM 34.8600 29.3430 117° Southeast 537 618 37,000  Level FlightAware ADS-B
Fri 06:21:33 AM 34.8140 29.4530 117° Southeast 538 619 37,000  Level FlightAware ADS-B
Fri 06:22:09 AM 34.7750 29.5450 117° Southeast 538 619 37,000  Level FlightAware ADS-B
Fri 06:22:36 AM 34.7460 29.6150 117° Southeast 538 619 37,000  Level FlightAware ADS-B
Fri 06:23:16 AM 34.7010 29.7230 117° Southeast 539 620 37,000  Level FlightAware ADS-B
Fri 06:23:51 AM 34.6600 29.8200 117° Southeast 540 621 37,000  Level FlightAware ADS-B
Fri 06:24:36 AM 34.6160 29.9260 117° Southeast 536 617 37,000  Level FlightAware ADS-B
Fri 06:25:07 AM 34.5740 30.0220 118° Southeast 536 617 37,000  Level FlightAware ADS-B
Fri 06:25:47 AM 34.5260 30.1210 120° Southeast 539 620 37,000  Level FlightAware ADS-B
Fri 06:26:27 AM 34.4700 30.2360 121° Southeast 539 620 37,000  Level FlightAware ADS-B
Fri 06:26:58 AM 34.4330 30.3110 121° Southeast 540 621 37,000  Level FlightAware ADS-B
Fri 06:27:38 AM 34.3820 30.4180 120° Southeast 539 620 37,000  Level FlightAware ADS-B
Fri 06:28:09 AM 34.3430 30.4990 120° Southeast 540 621 37,000  Level FlightAware ADS-B
Fri 06:28:44 AM 34.2980 30.5900 121° Southeast 540 621 37,000  Level FlightAware ADS-B
Fri 06:29:20 AM 34.2560 30.6790 120° Southeast 541 623 37,000  Level FlightAware ADS-B
Fri 06:29:54 AM 34.2090 30.7760 120° Southeast 541 623 37,000  Level FlightAware ADS-B
Fri 06:30:27 AM 34.1690 30.8570 121° Southeast 542 624 37,000  Level FlightAware ADS-B
Fri 06:31:07 AM 34.1170 30.9670 120° Southeast 542 624 37,000  Level FlightAware ADS-B
Fri 06:31:43 AM 34.0710 31.0580 121° Southeast 542 624 37,000  Level FlightAware ADS-B
Fri 06:32:13 AM 34.0330 31.1360 120° Southeast 542 624 37,000  Level FlightAware ADS-B
Fri 06:32:53 AM 33.9830 31.2370 121° Southeast 542 624 37,000  Level FlightAware ADS-B
Fri 06:33:23 AM 33.9440 31.3180 120° Southeast 542 624 37,000  Level FlightAware ADS-B
Fri 06:33:58 AM 33.8990 31.4090 121° Southeast 541 623 37,000  Level FlightAware ADS-B
Fri 06:34:36 AM 33.8510 31.5040 121° Southeast 542 624 37,000  Level FlightAware ADS-B
Fri 06:35:09 AM 33.8090 31.5890 121° Southeast 541 623 37,000  Level FlightAware ADS-B
Fri 06:35:44 AM 33.7620 31.6850 120° Southeast 541 623 37,000  Level FlightAware ADS-B
Fri 06:36:18 AM 33.7200 31.7680 121° Southeast 540 621 37,000  Level FlightAware ADS-B
Fri 06:36:54 AM 33.6730 31.8630 121° Southeast 540 621 37,000  Level FlightAware ADS-B
Fri 06:37:28 AM 33.6290 31.9500 121° Southeast 539 620 37,000  Level FlightAware ADS-B
Fri 06:38:06 AM 33.5830 32.0420 121° Southeast 539 620 37,000  Level FlightAware ADS-B
Fri 06:38:39 AM 33.5370 32.1340 121° Southeast 539 620 37,000  Level FlightAware ADS-B
Fri 06:39:14 AM 33.4920 32.2240 121° Southeast 535 616 37,000  Level FlightAware ADS-B
Fri 06:39:49 AM 33.4460 32.3130 122° Southeast 535 616 37,000  Level FlightAware ADS-B
Fri 06:40:25 AM 33.4000 32.4020 122° Southeast 536 617 37,000  Level FlightAware ADS-B
Fri 06:41:00 AM 33.3560 32.4890 121° Southeast 536 617 37,000  Level FlightAware ADS-B
Fri 06:41:36 AM 33.3130 32.5730 121° Southeast 536 617 37,000 -83 Level FlightAware ADS-B
Fri 06:42:12 AM 33.2600 32.6770 121° Southeast 540 621 36,900 -1,765 Descending FlightAware ADS-B
Fri 06:42:44 AM 33.2190 32.7570 121° Southeast 551 634 35,000 -3,760 Descending FlightAware ADS-B
Fri 06:43:27 AM 33.1610 32.8700 121° Southeast 556 640 32,200 -3,357 Descending FlightAware ADS-B
Fri 06:44:08 AM 33.1100 32.9700 121° Southeast 533 613 30,300 -2,658 Descending FlightAware ADS-B
Fri 06:44:46 AM 33.0570 33.0710 122° Southeast 515 593 28,700 -2,514 Descending FlightAware ADS-B
Fri 06:45:22 AM 33.0130 33.1560 122° Southeast 497 572 27,200 -2,382 Descending FlightAware ADS-B
Fri 06:45:54 AM 32.9750 33.2320 121° Southeast 481 554 26,000 -2,091 Descending FlightAware ADS-B
Fri 06:46:28 AM 32.9380 33.3020 122° Southeast 462 532 24,900 -2,057 Descending FlightAware ADS-B
Fri 06:47:04 AM 32.8960 33.3800 123° Southeast 445 512 23,600 -2,108 Descending FlightAware ADS-B
Fri 06:47:42 AM 32.8560 33.4570 122° Southeast 445 512 22,300 -2,057 Descending FlightAware ADS-B
Fri 06:48:14 AM 32.8200 33.5250 122° Southeast 445 512 21,200 -2,118 Descending FlightAware ADS-B
Fri 06:48:50 AM 32.7810 33.6020 121° Southeast 440 506 19,900 -2,083 Descending FlightAware ADS-B
Fri 06:49:26 AM 32.7420 33.6750 122° Southeast 435 501 18,700 -1,944 Descending FlightAware ADS-B
Fri 06:50:01 AM 32.7050 33.7460 122° Southeast 426 490 17,600 -1,913 Descending FlightAware ADS-B
Fri 06:50:35 AM 32.6710 33.8100 122° Southeast 413 475 16,500 -1,886 Descending FlightAware ADS-B
Fri 06:51:11 AM 32.6340 33.8780 123° Southeast 408 470 15,400 -1,833 Descending FlightAware ADS-B
Fri 06:51:47 AM 32.6000 33.9440 121° Southeast 400 460 14,300 -1,853 Descending FlightAware ADS-B
Fri 06:52:19 AM 32.5680 34.0030 123° Southeast 394 453 13,300 -1,853 Descending FlightAware ADS-B
Fri 06:52:55 AM 32.5330 34.0700 122° Southeast 387 445 12,200 -1,833 Descending FlightAware ADS-B
Fri 06:53:31 AM 32.4980 34.1360 122° Southeast 374 430 11,100 -1,543 Descending FlightAware ADS-B
Fri 06:54:05 AM 32.4620 34.1880 129° Southeast 353 406 10,400 -896 Descending FlightAware ADS-B
Fri 06:54:38 AM 32.4270 34.2290 135° Southeast 328 377 10,100 -435 Descending FlightAware ADS-B
Fri 06:55:14 AM 32.3940 34.2680 135° Southeast 241 277 9,900 -462 Descending FlightAware ADS-B
Fri 06:55:30 AM 32.3780 34.2860 136° Southeast 293 337 9,700 -1,600 Descending FlightAware ADS-B
Fri 06:55:59 AM 32.3450 34.3250 135° Southeast 297 342 8,700 -1,692 Descending FlightAware ADS-B
Fri 06:56:09 AM 32.3370 34.3360 131° Southeast 296 341 8,600 -774 Descending FlightAware ADS-B
Fri 06:56:30 AM 32.3220 34.3530 136° Southeast 290 334 8,300 -933 Descending FlightAware ADS-B
Fri 06:56:54 AM 32.2940 34.3850 136° Southeast 279 321 7,900 -1,019 Descending FlightAware ADS-B
Fri 06:57:23 AM 32.2670 34.4170 135° Southeast 277 319 7,400 -842 Descending FlightAware ADS-B
Fri 06:57:51 AM 32.2450 34.4420 136° Southeast 276 318 7,100 -750 Descending FlightAware ADS-B
Fri 06:58:11 AM 32.2290 34.4630 132° Southeast 274 315 6,800 -667 Descending FlightAware ADS-B
Fri 06:58:27 AM 32.2150 34.4880 123° Southeast 271 312 6,700 -450 Descending FlightAware ADS-B
Fri 06:58:51 AM 32.2010 34.5140 122° Southeast 269 310 6,500 -218 Descending FlightAware ADS-B
Fri 06:59:22 AM 32.1850 34.5460 121° Southeast 269 310 6,500 -480 Level FlightAware ADS-B
Fri 06:59:41 AM 32.1680 34.5770 123° Southeast 270 311 6,100 -857 Descending FlightAware ADS-B
Fri 07:00:04 AM 32.1510 34.6080 123° Southeast 270 311 5,900 -436 Descending FlightAware ADS-B
Fri 07:00:36 AM 32.1300 34.6480 122° Southeast 270 311 5,700 -480 Descending FlightAware ADS-B
Fri 07:00:54 AM 32.1190 34.6680 123° Southeast 268 308 5,500 -327 Descending FlightAware ADS-B
Fri 07:01:31 AM 32.0960 34.7120 122° Southeast 267 307 5,400 -577 Descending FlightAware ADS-B
Fri 07:01:46 AM 32.1100 34.6850 301° West 267 307 5,000 -558 Descending FlightAware ADS-B
Fri 07:02:14 AM 32.0940 34.7150 122° Southeast 267 307 5,000 -529 Level FlightAware ADS-B
Fri 07:02:54 AM 32.0390 34.8000 127° Southeast 228 262 4,400 -554 Descending FlightAware ADS-B
Fri 07:03:19 AM 32.0230 34.8190 135° Southeast 228 262 4,400  Level FlightAware ADS-B
Fri 07:03:45 AM 32.0000 34.8440 137° Southeast 227 261 4,400 -136 Level FlightAware ADS-B
Fri 07:04:03 AM 31.9850 34.8610 136° Southeast 217 250 4,300 -947 Descending FlightAware ADS-B
Fri 07:04:23 AM 31.9740 34.8780 127° Southeast 192 221 3,800 -1,371 Descending FlightAware ADS-B
Fri 07:04:38 AM 31.9730 34.8910 95° East 183 211 3,500 -1,200 Descending FlightAware ADS-B
Fri 07:05:03 AM 31.9770 34.9150 79° East 164 189 3,000 -1,143 Descending FlightAware ADS-B
Fri 07:05:20 AM 31.9800 34.9260 72° East 161 185 2,700 -1,500 Descending FlightAware ADS-B
Fri 07:05:43 AM 31.9850 34.9490 76° East 163 188 2,000 -1,269 Descending FlightAware ADS-B
Fri 07:06:12 AM 31.9990 34.9660 46° Northeast 158 182 1,600 -882 Descending FlightAware ADS-B
Fri 07:06:17 AM 32.0040 34.9660 360° North 155 178 1,500 -750 Descending FlightAware ADS-B
Fri 07:06:44 AM 32.0210 34.9590 341° North 150 173 1,200 -698 Descending FlightAware ADS-B
Fri 07:07:00 AM 32.0260 34.9490 301° West 153 176 1,000 -811 Descending FlightAware ADS-B
Fri 07:07:21 AM 32.0230 34.9310 259° West 157 181 700 -750 Descending FlightAware ADS-B
Fri 07:07:48 AM 32.0210 34.9110 263° West 154 177 400 -333 Descending FlightAware ADS-B
Fri 07:08:15 AM 32.0180 34.8920 259° West 154 177 400  Level FlightAware ADS-B

Login

Don't have an account? Register now (free) for customized features, flight alerts, and more!